<?xml version="1.0" encoding="UTF-8" standalone="no" ?>
<gpx xmlns="http://www.topografix.com/GPX/1/1" xmlns:xsi="http://www.w3.org/2001/XMLSchema-instance" xsi:schemaLocation="http://www.topografix.com/GPX/1/1 http://www.topografix.com/GPX/1/1/gpx.xsd" version="1.1" creator="VisuGPX - https://www.visugpx.com">
  <metadata>
    <name>tour du lac de kruth</name>
  </metadata>
  <trk>
    <name><![CDATA[tour du lac de kruth_1]]></name>
    <trkseg>
      <trkpt lat="47.95017" lon="6.96068">
        <ele>536.6</ele>
        <time>2020-08-19T14:42:24Z</time>
      </trkpt>
      <trkpt lat="47.95019" lon="6.96074">
        <ele>552.9</ele>
        <time>2020-08-19T14:42:32Z</time>
      </trkpt>
      <trkpt lat="47.95024" lon="6.96074">
        <ele>552.2</ele>
        <time>2020-08-19T14:43:54Z</time>
      </trkpt>
      <trkpt lat="47.95024" lon="6.96067">
        <ele>551.7</ele>
        <time>2020-08-19T14:44:20Z</time>
      </trkpt>
      <trkpt lat="47.95028" lon="6.9607">
        <ele>551.7</ele>
        <time>2020-08-19T14:44:27Z</time>
      </trkpt>
      <trkpt lat="47.95031" lon="6.96076">
        <ele>551.6</ele>
        <time>2020-08-19T14:44:30Z</time>
      </trkpt>
      <trkpt lat="47.95035" lon="6.96075">
        <ele>551.4</ele>
        <time>2020-08-19T14:44:49Z</time>
      </trkpt>
      <trkpt lat="47.9504" lon="6.96077">
        <ele>551.4</ele>
        <time>2020-08-19T14:44:57Z</time>
      </trkpt>
      <trkpt lat="47.95042" lon="6.96089">
        <ele>551.5</ele>
        <time>2020-08-19T14:45:23Z</time>
      </trkpt>
      <trkpt lat="47.95042" lon="6.96096">
        <ele>551.5</ele>
        <time>2020-08-19T14:45:27Z</time>
      </trkpt>
      <trkpt lat="47.95047" lon="6.96093">
        <ele>551.7</ele>
        <time>2020-08-19T14:45:47Z</time>
      </trkpt>
      <trkpt lat="47.95051" lon="6.9609">
        <ele>551.7</ele>
        <time>2020-08-19T14:45:50Z</time>
      </trkpt>
      <trkpt lat="47.95055" lon="6.96085">
        <ele>551.7</ele>
        <time>2020-08-19T14:45:54Z</time>
      </trkpt>
      <trkpt lat="47.95059" lon="6.96082">
        <ele>551.7</ele>
        <time>2020-08-19T14:46:01Z</time>
      </trkpt>
      <trkpt lat="47.95064" lon="6.96079">
        <ele>551.5</ele>
        <time>2020-08-19T14:46:12Z</time>
      </trkpt>
      <trkpt lat="47.95068" lon="6.96077">
        <ele>551.2</ele>
        <time>2020-08-19T14:46:19Z</time>
      </trkpt>
      <trkpt lat="47.95071" lon="6.96072">
        <ele>549.7</ele>
        <time>2020-08-19T14:46:42Z</time>
      </trkpt>
      <trkpt lat="47.95073" lon="6.96066">
        <ele>549.4</ele>
        <time>2020-08-19T14:46:50Z</time>
      </trkpt>
      <trkpt lat="47.95076" lon="6.96072">
        <ele>547.4</ele>
        <time>2020-08-19T14:47:53Z</time>
      </trkpt>
      <trkpt lat="47.95079" lon="6.96077">
        <ele>545.8</ele>
        <time>2020-08-19T14:47:58Z</time>
      </trkpt>
      <trkpt lat="47.95083" lon="6.96074">
        <ele>544.8</ele>
        <time>2020-08-19T14:48:03Z</time>
      </trkpt>
      <trkpt lat="47.95088" lon="6.96074">
        <ele>543.9</ele>
        <time>2020-08-19T14:48:11Z</time>
      </trkpt>
      <trkpt lat="47.95094" lon="6.96071">
        <ele>543.4</ele>
        <time>2020-08-19T14:48:16Z</time>
      </trkpt>
      <trkpt lat="47.95096" lon="6.96065">
        <ele>542.9</ele>
        <time>2020-08-19T14:48:21Z</time>
      </trkpt>
      <trkpt lat="47.95101" lon="6.96064">
        <ele>542.3</ele>
        <time>2020-08-19T14:48:28Z</time>
      </trkpt>
      <trkpt lat="47.95105" lon="6.96062">
        <ele>541.7</ele>
        <time>2020-08-19T14:48:35Z</time>
      </trkpt>
      <trkpt lat="47.95109" lon="6.96058">
        <ele>541.1</ele>
        <time>2020-08-19T14:48:41Z</time>
      </trkpt>
      <trkpt lat="47.95114" lon="6.96055">
        <ele>540.5</ele>
        <time>2020-08-19T14:48:46Z</time>
      </trkpt>
      <trkpt lat="47.95118" lon="6.96054">
        <ele>539.8</ele>
        <time>2020-08-19T14:48:52Z</time>
      </trkpt>
      <trkpt lat="47.9512" lon="6.96061">
        <ele>538.6</ele>
        <time>2020-08-19T14:48:59Z</time>
      </trkpt>
      <trkpt lat="47.95124" lon="6.96055">
        <ele>536.9</ele>
        <time>2020-08-19T14:49:29Z</time>
      </trkpt>
      <trkpt lat="47.95128" lon="6.96051">
        <ele>536.9</ele>
        <time>2020-08-19T14:49:33Z</time>
      </trkpt>
      <trkpt lat="47.95132" lon="6.96048">
        <ele>536.9</ele>
        <time>2020-08-19T14:49:37Z</time>
      </trkpt>
      <trkpt lat="47.95136" lon="6.96044">
        <ele>536.9</ele>
        <time>2020-08-19T14:49:42Z</time>
      </trkpt>
      <trkpt lat="47.95141" lon="6.96042">
        <ele>536.8</ele>
        <time>2020-08-19T14:49:47Z</time>
      </trkpt>
      <trkpt lat="47.95146" lon="6.96039">
        <ele>536.7</ele>
        <time>2020-08-19T14:49:52Z</time>
      </trkpt>
      <trkpt lat="47.9515" lon="6.96035">
        <ele>536.6</ele>
        <time>2020-08-19T14:49:57Z</time>
      </trkpt>
      <trkpt lat="47.95154" lon="6.96031">
        <ele>536.5</ele>
        <time>2020-08-19T14:50:03Z</time>
      </trkpt>
      <trkpt lat="47.95158" lon="6.96029">
        <ele>536.3</ele>
        <time>2020-08-19T14:50:10Z</time>
      </trkpt>
      <trkpt lat="47.95163" lon="6.96025">
        <ele>535.9</ele>
        <time>2020-08-19T14:50:26Z</time>
      </trkpt>
      <trkpt lat="47.95167" lon="6.96022">
        <ele>535.7</ele>
        <time>2020-08-19T14:50:32Z</time>
      </trkpt>
      <trkpt lat="47.95171" lon="6.96017">
        <ele>535.6</ele>
        <time>2020-08-19T14:50:38Z</time>
      </trkpt>
      <trkpt lat="47.95174" lon="6.96011">
        <ele>535.5</ele>
        <time>2020-08-19T14:50:43Z</time>
      </trkpt>
      <trkpt lat="47.95178" lon="6.96006">
        <ele>535.4</ele>
        <time>2020-08-19T14:50:48Z</time>
      </trkpt>
      <trkpt lat="47.95182" lon="6.96001">
        <ele>535.3</ele>
        <time>2020-08-19T14:50:53Z</time>
      </trkpt>
      <trkpt lat="47.95186" lon="6.95998">
        <ele>535.3</ele>
        <time>2020-08-19T14:50:59Z</time>
      </trkpt>
      <trkpt lat="47.95191" lon="6.95995">
        <ele>535.3</ele>
        <time>2020-08-19T14:51:05Z</time>
      </trkpt>
      <trkpt lat="47.95196" lon="6.95995">
        <ele>535.4</ele>
        <time>2020-08-19T14:51:11Z</time>
      </trkpt>
      <trkpt lat="47.95201" lon="6.95994">
        <ele>535.6</ele>
        <time>2020-08-19T14:51:16Z</time>
      </trkpt>
      <trkpt lat="47.95206" lon="6.95991">
        <ele>535.8</ele>
        <time>2020-08-19T14:51:21Z</time>
      </trkpt>
      <trkpt lat="47.9521" lon="6.95988">
        <ele>535.8</ele>
        <time>2020-08-19T14:51:27Z</time>
      </trkpt>
      <trkpt lat="47.95215" lon="6.95988">
        <ele>535.8</ele>
        <time>2020-08-19T14:51:34Z</time>
      </trkpt>
      <trkpt lat="47.9522" lon="6.95989">
        <ele>535.7</ele>
        <time>2020-08-19T14:51:40Z</time>
      </trkpt>
      <trkpt lat="47.95224" lon="6.9599">
        <ele>535.7</ele>
        <time>2020-08-19T14:51:46Z</time>
      </trkpt>
      <trkpt lat="47.9523" lon="6.9599">
        <ele>535.6</ele>
        <time>2020-08-19T14:51:53Z</time>
      </trkpt>
      <trkpt lat="47.95235" lon="6.95993">
        <ele>535.5</ele>
        <time>2020-08-19T14:51:57Z</time>
      </trkpt>
      <trkpt lat="47.95239" lon="6.95995">
        <ele>535.6</ele>
        <time>2020-08-19T14:52:01Z</time>
      </trkpt>
      <trkpt lat="47.95244" lon="6.95996">
        <ele>535.7</ele>
        <time>2020-08-19T14:52:06Z</time>
      </trkpt>
      <trkpt lat="47.95249" lon="6.95995">
        <ele>535.7</ele>
        <time>2020-08-19T14:52:11Z</time>
      </trkpt>
      <trkpt lat="47.95255" lon="6.95995">
        <ele>535.8</ele>
        <time>2020-08-19T14:52:17Z</time>
      </trkpt>
      <trkpt lat="47.9526" lon="6.95995">
        <ele>535.8</ele>
        <time>2020-08-19T14:52:23Z</time>
      </trkpt>
      <trkpt lat="47.95265" lon="6.95992">
        <ele>536</ele>
        <time>2020-08-19T14:52:28Z</time>
      </trkpt>
      <trkpt lat="47.9527" lon="6.95991">
        <ele>536.2</ele>
        <time>2020-08-19T14:52:34Z</time>
      </trkpt>
      <trkpt lat="47.95274" lon="6.95994">
        <ele>536.4</ele>
        <time>2020-08-19T14:52:42Z</time>
      </trkpt>
      <trkpt lat="47.95279" lon="6.95992">
        <ele>536.8</ele>
        <time>2020-08-19T14:52:50Z</time>
      </trkpt>
      <trkpt lat="47.95284" lon="6.95992">
        <ele>537.1</ele>
        <time>2020-08-19T14:52:57Z</time>
      </trkpt>
      <trkpt lat="47.95289" lon="6.95992">
        <ele>537.3</ele>
        <time>2020-08-19T14:53:01Z</time>
      </trkpt>
      <trkpt lat="47.95294" lon="6.95989">
        <ele>537.5</ele>
        <time>2020-08-19T14:53:04Z</time>
      </trkpt>
      <trkpt lat="47.95298" lon="6.95987">
        <ele>537.7</ele>
        <time>2020-08-19T14:53:07Z</time>
      </trkpt>
      <trkpt lat="47.95304" lon="6.95985">
        <ele>537.8</ele>
        <time>2020-08-19T14:53:11Z</time>
      </trkpt>
      <trkpt lat="47.95309" lon="6.95984">
        <ele>537.9</ele>
        <time>2020-08-19T14:53:15Z</time>
      </trkpt>
      <trkpt lat="47.95313" lon="6.95984">
        <ele>538.6</ele>
        <time>2020-08-19T14:53:21Z</time>
      </trkpt>
      <trkpt lat="47.95319" lon="6.95982">
        <ele>539.1</ele>
        <time>2020-08-19T14:53:26Z</time>
      </trkpt>
      <trkpt lat="47.95323" lon="6.95982">
        <ele>540.2</ele>
        <time>2020-08-19T14:53:35Z</time>
      </trkpt>
      <trkpt lat="47.95326" lon="6.95976">
        <ele>539.2</ele>
        <time>2020-08-19T14:53:44Z</time>
      </trkpt>
      <trkpt lat="47.95329" lon="6.9597">
        <ele>538.8</ele>
        <time>2020-08-19T14:53:54Z</time>
      </trkpt>
      <trkpt lat="47.95332" lon="6.95963">
        <ele>539.3</ele>
        <time>2020-08-19T14:54:00Z</time>
      </trkpt>
      <trkpt lat="47.95337" lon="6.95962">
        <ele>541.9</ele>
        <time>2020-08-19T14:54:10Z</time>
      </trkpt>
      <trkpt lat="47.95341" lon="6.95957">
        <ele>543.9</ele>
        <time>2020-08-19T14:54:18Z</time>
      </trkpt>
      <trkpt lat="47.95344" lon="6.95953">
        <ele>544.3</ele>
        <time>2020-08-19T14:54:22Z</time>
      </trkpt>
      <trkpt lat="47.95344" lon="6.9596">
        <ele>544.2</ele>
        <time>2020-08-19T14:54:33Z</time>
      </trkpt>
      <trkpt lat="47.95348" lon="6.95956">
        <ele>542.5</ele>
        <time>2020-08-19T14:54:50Z</time>
      </trkpt>
      <trkpt lat="47.95353" lon="6.95954">
        <ele>543.3</ele>
        <time>2020-08-19T14:54:56Z</time>
      </trkpt>
      <trkpt lat="47.95357" lon="6.95951">
        <ele>544</ele>
        <time>2020-08-19T14:55:01Z</time>
      </trkpt>
      <trkpt lat="47.95362" lon="6.9595">
        <ele>545</ele>
        <time>2020-08-19T14:55:05Z</time>
      </trkpt>
      <trkpt lat="47.95367" lon="6.95947">
        <ele>546.3</ele>
        <time>2020-08-19T14:55:11Z</time>
      </trkpt>
      <trkpt lat="47.95371" lon="6.9595">
        <ele>548.6</ele>
        <time>2020-08-19T14:55:23Z</time>
      </trkpt>
      <trkpt lat="47.95376" lon="6.95953">
        <ele>549.8</ele>
        <time>2020-08-19T14:55:35Z</time>
      </trkpt>
      <trkpt lat="47.9538" lon="6.95954">
        <ele>550.1</ele>
        <time>2020-08-19T14:55:41Z</time>
      </trkpt>
      <trkpt lat="47.95385" lon="6.95954">
        <ele>550.2</ele>
        <time>2020-08-19T14:55:47Z</time>
      </trkpt>
      <trkpt lat="47.95389" lon="6.9595">
        <ele>550.5</ele>
        <time>2020-08-19T14:55:54Z</time>
      </trkpt>
      <trkpt lat="47.95394" lon="6.95947">
        <ele>551.2</ele>
        <time>2020-08-19T14:56:00Z</time>
      </trkpt>
      <trkpt lat="47.95399" lon="6.95945">
        <ele>552</ele>
        <time>2020-08-19T14:56:07Z</time>
      </trkpt>
      <trkpt lat="47.95403" lon="6.95942">
        <ele>552.8</ele>
        <time>2020-08-19T14:56:14Z</time>
      </trkpt>
      <trkpt lat="47.95407" lon="6.95938">
        <ele>553.6</ele>
        <time>2020-08-19T14:56:19Z</time>
      </trkpt>
      <trkpt lat="47.9541" lon="6.95933">
        <ele>554.1</ele>
        <time>2020-08-19T14:56:27Z</time>
      </trkpt>
      <trkpt lat="47.95416" lon="6.95931">
        <ele>554</ele>
        <time>2020-08-19T14:56:33Z</time>
      </trkpt>
      <trkpt lat="47.95421" lon="6.95929">
        <ele>554.1</ele>
        <time>2020-08-19T14:56:37Z</time>
      </trkpt>
      <trkpt lat="47.95426" lon="6.95926">
        <ele>554.1</ele>
        <time>2020-08-19T14:56:42Z</time>
      </trkpt>
      <trkpt lat="47.95431" lon="6.95924">
        <ele>556.6</ele>
        <time>2020-08-19T14:56:54Z</time>
      </trkpt>
      <trkpt lat="47.95435" lon="6.95921">
        <ele>558.1</ele>
        <time>2020-08-19T14:57:31Z</time>
      </trkpt>
      <trkpt lat="47.95481" lon="6.95871">
        <ele>554.6</ele>
        <time>2020-08-19T14:58:43Z</time>
      </trkpt>
      <trkpt lat="47.95476" lon="6.95864">
        <ele>554.4</ele>
        <time>2020-08-19T14:58:47Z</time>
      </trkpt>
      <trkpt lat="47.95469" lon="6.95859">
        <ele>554.3</ele>
        <time>2020-08-19T14:58:50Z</time>
      </trkpt>
      <trkpt lat="47.9546" lon="6.95852">
        <ele>554.1</ele>
        <time>2020-08-19T14:58:53Z</time>
      </trkpt>
      <trkpt lat="47.95455" lon="6.95847">
        <ele>554</ele>
        <time>2020-08-19T14:58:55Z</time>
      </trkpt>
      <trkpt lat="47.95454" lon="6.9584">
        <ele>553.5</ele>
        <time>2020-08-19T14:59:10Z</time>
      </trkpt>
      <trkpt lat="47.95456" lon="6.95832">
        <ele>553.3</ele>
        <time>2020-08-19T14:59:14Z</time>
      </trkpt>
      <trkpt lat="47.95458" lon="6.95824">
        <ele>553.2</ele>
        <time>2020-08-19T14:59:18Z</time>
      </trkpt>
      <trkpt lat="47.9546" lon="6.95817">
        <ele>552.9</ele>
        <time>2020-08-19T14:59:24Z</time>
      </trkpt>
      <trkpt lat="47.95453" lon="6.95817">
        <ele>553</ele>
        <time>2020-08-19T15:01:25Z</time>
      </trkpt>
      <trkpt lat="47.95459" lon="6.95817">
        <ele>552.9</ele>
        <time>2020-08-19T15:01:37Z</time>
      </trkpt>
      <trkpt lat="47.95464" lon="6.95815">
        <ele>552.8</ele>
        <time>2020-08-19T15:01:47Z</time>
      </trkpt>
      <trkpt lat="47.9546" lon="6.95821">
        <ele>552.7</ele>
        <time>2020-08-19T15:01:53Z</time>
      </trkpt>
      <trkpt lat="47.95459" lon="6.95828">
        <ele>552.6</ele>
        <time>2020-08-19T15:01:57Z</time>
      </trkpt>
      <trkpt lat="47.95464" lon="6.9583">
        <ele>552.5</ele>
        <time>2020-08-19T15:02:05Z</time>
      </trkpt>
      <trkpt lat="47.95464" lon="6.95822">
        <ele>552.3</ele>
        <time>2020-08-19T15:02:15Z</time>
      </trkpt>
      <trkpt lat="47.95463" lon="6.95812">
        <ele>552.2</ele>
        <time>2020-08-19T15:02:19Z</time>
      </trkpt>
      <trkpt lat="47.95461" lon="6.95808">
        <ele>551.6</ele>
        <time>2020-08-19T15:02:30Z</time>
      </trkpt>
      <trkpt lat="47.95458" lon="6.95814">
        <ele>551.5</ele>
        <time>2020-08-19T15:02:33Z</time>
      </trkpt>
      <trkpt lat="47.95454" lon="6.95808">
        <ele>552.2</ele>
        <time>2020-08-19T15:03:04Z</time>
      </trkpt>
      <trkpt lat="47.95453" lon="6.95801">
        <ele>552.1</ele>
        <time>2020-08-19T15:03:10Z</time>
      </trkpt>
      <trkpt lat="47.95452" lon="6.95795">
        <ele>551.8</ele>
        <time>2020-08-19T15:03:17Z</time>
      </trkpt>
      <trkpt lat="47.9545" lon="6.95788">
        <ele>551.5</ele>
        <time>2020-08-19T15:03:27Z</time>
      </trkpt>
      <trkpt lat="47.95447" lon="6.95783">
        <ele>551.7</ele>
        <time>2020-08-19T15:03:40Z</time>
      </trkpt>
      <trkpt lat="47.95445" lon="6.95776">
        <ele>552.1</ele>
        <time>2020-08-19T15:03:48Z</time>
      </trkpt>
      <trkpt lat="47.95443" lon="6.9577">
        <ele>552.7</ele>
        <time>2020-08-19T15:03:58Z</time>
      </trkpt>
      <trkpt lat="47.95448" lon="6.95772">
        <ele>552.5</ele>
        <time>2020-08-19T15:04:07Z</time>
      </trkpt>
      <trkpt lat="47.95452" lon="6.95767">
        <ele>552.1</ele>
        <time>2020-08-19T15:04:18Z</time>
      </trkpt>
      <trkpt lat="47.95455" lon="6.95761">
        <ele>551.5</ele>
        <time>2020-08-19T15:04:24Z</time>
      </trkpt>
      <trkpt lat="47.95457" lon="6.95755">
        <ele>550.4</ele>
        <time>2020-08-19T15:04:33Z</time>
      </trkpt>
      <trkpt lat="47.95457" lon="6.95748">
        <ele>548.1</ele>
        <time>2020-08-19T15:04:49Z</time>
      </trkpt>
      <trkpt lat="47.95459" lon="6.95742">
        <ele>547.6</ele>
        <time>2020-08-19T15:04:55Z</time>
      </trkpt>
      <trkpt lat="47.95461" lon="6.95736">
        <ele>547.2</ele>
        <time>2020-08-19T15:05:00Z</time>
      </trkpt>
      <trkpt lat="47.95461" lon="6.95729">
        <ele>546.2</ele>
        <time>2020-08-19T15:05:14Z</time>
      </trkpt>
      <trkpt lat="47.95464" lon="6.95723">
        <ele>545.9</ele>
        <time>2020-08-19T15:05:21Z</time>
      </trkpt>
      <trkpt lat="47.95468" lon="6.95718">
        <ele>545.5</ele>
        <time>2020-08-19T15:05:27Z</time>
      </trkpt>
      <trkpt lat="47.95471" lon="6.95713">
        <ele>545.5</ele>
        <time>2020-08-19T15:05:32Z</time>
      </trkpt>
      <trkpt lat="47.95475" lon="6.95708">
        <ele>545.5</ele>
        <time>2020-08-19T15:05:47Z</time>
      </trkpt>
      <trkpt lat="47.9548" lon="6.95705">
        <ele>545.2</ele>
        <time>2020-08-19T15:05:53Z</time>
      </trkpt>
      <trkpt lat="47.95484" lon="6.95702">
        <ele>544.8</ele>
        <time>2020-08-19T15:05:59Z</time>
      </trkpt>
      <trkpt lat="47.95487" lon="6.95697">
        <ele>544.3</ele>
        <time>2020-08-19T15:06:05Z</time>
      </trkpt>
      <trkpt lat="47.95489" lon="6.9569">
        <ele>543.5</ele>
        <time>2020-08-19T15:06:12Z</time>
      </trkpt>
      <trkpt lat="47.95492" lon="6.95684">
        <ele>543.1</ele>
        <time>2020-08-19T15:06:17Z</time>
      </trkpt>
      <trkpt lat="47.95496" lon="6.9568">
        <ele>542.8</ele>
        <time>2020-08-19T15:06:23Z</time>
      </trkpt>
      <trkpt lat="47.955" lon="6.95676">
        <ele>542.5</ele>
        <time>2020-08-19T15:06:34Z</time>
      </trkpt>
      <trkpt lat="47.95504" lon="6.95671">
        <ele>542.6</ele>
        <time>2020-08-19T15:06:43Z</time>
      </trkpt>
      <trkpt lat="47.95507" lon="6.95666">
        <ele>542.7</ele>
        <time>2020-08-19T15:06:58Z</time>
      </trkpt>
      <trkpt lat="47.9551" lon="6.95659">
        <ele>542.8</ele>
        <time>2020-08-19T15:07:14Z</time>
      </trkpt>
      <trkpt lat="47.95515" lon="6.95655">
        <ele>542.5</ele>
        <time>2020-08-19T15:07:19Z</time>
      </trkpt>
      <trkpt lat="47.95519" lon="6.95651">
        <ele>542.3</ele>
        <time>2020-08-19T15:07:24Z</time>
      </trkpt>
      <trkpt lat="47.95524" lon="6.95648">
        <ele>542.1</ele>
        <time>2020-08-19T15:07:29Z</time>
      </trkpt>
      <trkpt lat="47.95528" lon="6.95644">
        <ele>541.9</ele>
        <time>2020-08-19T15:07:35Z</time>
      </trkpt>
      <trkpt lat="47.95532" lon="6.95639">
        <ele>541.9</ele>
        <time>2020-08-19T15:07:40Z</time>
      </trkpt>
      <trkpt lat="47.95535" lon="6.95634">
        <ele>541.9</ele>
        <time>2020-08-19T15:07:45Z</time>
      </trkpt>
      <trkpt lat="47.95539" lon="6.95628">
        <ele>541.9</ele>
        <time>2020-08-19T15:07:50Z</time>
      </trkpt>
      <trkpt lat="47.95542" lon="6.95622">
        <ele>541.9</ele>
        <time>2020-08-19T15:07:56Z</time>
      </trkpt>
      <trkpt lat="47.95544" lon="6.95615">
        <ele>541.7</ele>
        <time>2020-08-19T15:08:02Z</time>
      </trkpt>
      <trkpt lat="47.95546" lon="6.95609">
        <ele>541.6</ele>
        <time>2020-08-19T15:08:07Z</time>
      </trkpt>
      <trkpt lat="47.95547" lon="6.95602">
        <ele>541.4</ele>
        <time>2020-08-19T15:08:13Z</time>
      </trkpt>
      <trkpt lat="47.95551" lon="6.95598">
        <ele>541.6</ele>
        <time>2020-08-19T15:11:30Z</time>
      </trkpt>
      <trkpt lat="47.95555" lon="6.95604">
        <ele>541.3</ele>
        <time>2020-08-19T15:11:52Z</time>
      </trkpt>
      <trkpt lat="47.95557" lon="6.9561">
        <ele>540.8</ele>
        <time>2020-08-19T15:11:59Z</time>
      </trkpt>
      <trkpt lat="47.95552" lon="6.9561">
        <ele>542</ele>
        <time>2020-08-19T15:19:06Z</time>
      </trkpt>
      <trkpt lat="47.95548" lon="6.95605">
        <ele>541.9</ele>
        <time>2020-08-19T15:19:18Z</time>
      </trkpt>
      <trkpt lat="47.95547" lon="6.95612">
        <ele>541.3</ele>
        <time>2020-08-19T15:19:29Z</time>
      </trkpt>
      <trkpt lat="47.95544" lon="6.95617">
        <ele>541.9</ele>
        <time>2020-08-19T15:20:34Z</time>
      </trkpt>
      <trkpt lat="47.95541" lon="6.95624">
        <ele>542.8</ele>
        <time>2020-08-19T15:20:44Z</time>
      </trkpt>
      <trkpt lat="47.95538" lon="6.9563">
        <ele>543.4</ele>
        <time>2020-08-19T15:20:50Z</time>
      </trkpt>
      <trkpt lat="47.95535" lon="6.95635">
        <ele>543.8</ele>
        <time>2020-08-19T15:20:55Z</time>
      </trkpt>
      <trkpt lat="47.9553" lon="6.95639">
        <ele>544.3</ele>
        <time>2020-08-19T15:21:01Z</time>
      </trkpt>
      <trkpt lat="47.95526" lon="6.95642">
        <ele>544.8</ele>
        <time>2020-08-19T15:21:06Z</time>
      </trkpt>
      <trkpt lat="47.95522" lon="6.95646">
        <ele>545.5</ele>
        <time>2020-08-19T15:21:13Z</time>
      </trkpt>
      <trkpt lat="47.95519" lon="6.95652">
        <ele>545.6</ele>
        <time>2020-08-19T15:21:20Z</time>
      </trkpt>
      <trkpt lat="47.95516" lon="6.95658">
        <ele>545.5</ele>
        <time>2020-08-19T15:21:26Z</time>
      </trkpt>
      <trkpt lat="47.95513" lon="6.95662">
        <ele>545.4</ele>
        <time>2020-08-19T15:21:31Z</time>
      </trkpt>
      <trkpt lat="47.9551" lon="6.95667">
        <ele>545.1</ele>
        <time>2020-08-19T15:21:38Z</time>
      </trkpt>
      <trkpt lat="47.95506" lon="6.95671">
        <ele>545.1</ele>
        <time>2020-08-19T15:21:45Z</time>
      </trkpt>
      <trkpt lat="47.95501" lon="6.95672">
        <ele>545.2</ele>
        <time>2020-08-19T15:21:53Z</time>
      </trkpt>
      <trkpt lat="47.95497" lon="6.95669">
        <ele>544.1</ele>
        <time>2020-08-19T15:22:29Z</time>
      </trkpt>
      <trkpt lat="47.95498" lon="6.95662">
        <ele>543.1</ele>
        <time>2020-08-19T15:22:41Z</time>
      </trkpt>
      <trkpt lat="47.955" lon="6.95654">
        <ele>541</ele>
        <time>2020-08-19T15:23:02Z</time>
      </trkpt>
      <trkpt lat="47.95502" lon="6.95647">
        <ele>539.9</ele>
        <time>2020-08-19T15:23:08Z</time>
      </trkpt>
      <trkpt lat="47.95501" lon="6.9564">
        <ele>536.8</ele>
        <time>2020-08-19T15:23:45Z</time>
      </trkpt>
      <trkpt lat="47.95501" lon="6.95633">
        <ele>534.1</ele>
        <time>2020-08-19T15:23:49Z</time>
      </trkpt>
      <trkpt lat="47.95502" lon="6.95625">
        <ele>527.6</ele>
        <time>2020-08-19T15:23:58Z</time>
      </trkpt>
      <trkpt lat="47.95499" lon="6.95617">
        <ele>520.1</ele>
        <time>2020-08-19T15:24:27Z</time>
      </trkpt>
      <trkpt lat="47.95498" lon="6.9561">
        <ele>518.2</ele>
        <time>2020-08-19T15:24:32Z</time>
      </trkpt>
      <trkpt lat="47.955" lon="6.95603">
        <ele>516.5</ele>
        <time>2020-08-19T15:24:45Z</time>
      </trkpt>
      <trkpt lat="47.95501" lon="6.95596">
        <ele>516</ele>
        <time>2020-08-19T15:24:58Z</time>
      </trkpt>
      <trkpt lat="47.95501" lon="6.95589">
        <ele>515.5</ele>
        <time>2020-08-19T15:25:09Z</time>
      </trkpt>
      <trkpt lat="47.95499" lon="6.95582">
        <ele>515.8</ele>
        <time>2020-08-19T15:25:17Z</time>
      </trkpt>
      <trkpt lat="47.95495" lon="6.95576">
        <ele>516.7</ele>
        <time>2020-08-19T15:25:50Z</time>
      </trkpt>
      <trkpt lat="47.95491" lon="6.95572">
        <ele>518</ele>
        <time>2020-08-19T15:26:22Z</time>
      </trkpt>
      <trkpt lat="47.95487" lon="6.95568">
        <ele>518.1</ele>
        <time>2020-08-19T15:26:30Z</time>
      </trkpt>
      <trkpt lat="47.95482" lon="6.95567">
        <ele>518.1</ele>
        <time>2020-08-19T15:26:37Z</time>
      </trkpt>
      <trkpt lat="47.95478" lon="6.95565">
        <ele>518.3</ele>
        <time>2020-08-19T15:26:44Z</time>
      </trkpt>
      <trkpt lat="47.95473" lon="6.95566">
        <ele>518.7</ele>
        <time>2020-08-19T15:26:53Z</time>
      </trkpt>
      <trkpt lat="47.95468" lon="6.95569">
        <ele>519.1</ele>
        <time>2020-08-19T15:27:00Z</time>
      </trkpt>
      <trkpt lat="47.95463" lon="6.9557">
        <ele>519.6</ele>
        <time>2020-08-19T15:27:10Z</time>
      </trkpt>
      <trkpt lat="47.95459" lon="6.95573">
        <ele>520.5</ele>
        <time>2020-08-19T15:27:20Z</time>
      </trkpt>
      <trkpt lat="47.95455" lon="6.95574">
        <ele>521</ele>
        <time>2020-08-19T15:27:26Z</time>
      </trkpt>
      <trkpt lat="47.95449" lon="6.95574">
        <ele>521.7</ele>
        <time>2020-08-19T15:27:32Z</time>
      </trkpt>
      <trkpt lat="47.95445" lon="6.95574">
        <ele>521.8</ele>
        <time>2020-08-19T15:27:39Z</time>
      </trkpt>
      <trkpt lat="47.9544" lon="6.95573">
        <ele>521.1</ele>
        <time>2020-08-19T15:27:47Z</time>
      </trkpt>
      <trkpt lat="47.95436" lon="6.95575">
        <ele>519</ele>
        <time>2020-08-19T15:28:12Z</time>
      </trkpt>
      <trkpt lat="47.95431" lon="6.95574">
        <ele>519.5</ele>
        <time>2020-08-19T15:28:34Z</time>
      </trkpt>
      <trkpt lat="47.95426" lon="6.95574">
        <ele>520.3</ele>
        <time>2020-08-19T15:28:52Z</time>
      </trkpt>
      <trkpt lat="47.95422" lon="6.95573">
        <ele>519.9</ele>
        <time>2020-08-19T15:29:31Z</time>
      </trkpt>
      <trkpt lat="47.95417" lon="6.95571">
        <ele>520.6</ele>
        <time>2020-08-19T15:29:45Z</time>
      </trkpt>
      <trkpt lat="47.95413" lon="6.95567">
        <ele>520.9</ele>
        <time>2020-08-19T15:29:54Z</time>
      </trkpt>
      <trkpt lat="47.95408" lon="6.95565">
        <ele>521.1</ele>
        <time>2020-08-19T15:29:59Z</time>
      </trkpt>
      <trkpt lat="47.95403" lon="6.95562">
        <ele>521.5</ele>
        <time>2020-08-19T15:30:05Z</time>
      </trkpt>
      <trkpt lat="47.95399" lon="6.95559">
        <ele>522.1</ele>
        <time>2020-08-19T15:30:15Z</time>
      </trkpt>
      <trkpt lat="47.95395" lon="6.95555">
        <ele>522.2</ele>
        <time>2020-08-19T15:30:22Z</time>
      </trkpt>
      <trkpt lat="47.95392" lon="6.9555">
        <ele>522.6</ele>
        <time>2020-08-19T15:30:37Z</time>
      </trkpt>
      <trkpt lat="47.95387" lon="6.95547">
        <ele>522.7</ele>
        <time>2020-08-19T15:30:43Z</time>
      </trkpt>
      <trkpt lat="47.95383" lon="6.95543">
        <ele>523</ele>
        <time>2020-08-19T15:30:49Z</time>
      </trkpt>
      <trkpt lat="47.95379" lon="6.9554">
        <ele>523.5</ele>
        <time>2020-08-19T15:30:58Z</time>
      </trkpt>
      <trkpt lat="47.95374" lon="6.95539">
        <ele>523.8</ele>
        <time>2020-08-19T15:31:04Z</time>
      </trkpt>
      <trkpt lat="47.95369" lon="6.95537">
        <ele>523.8</ele>
        <time>2020-08-19T15:31:10Z</time>
      </trkpt>
      <trkpt lat="47.95364" lon="6.95537">
        <ele>523.6</ele>
        <time>2020-08-19T15:31:24Z</time>
      </trkpt>
      <trkpt lat="47.95361" lon="6.95531">
        <ele>522.7</ele>
        <time>2020-08-19T15:32:00Z</time>
      </trkpt>
      <trkpt lat="47.95356" lon="6.95528">
        <ele>522.4</ele>
        <time>2020-08-19T15:32:06Z</time>
      </trkpt>
      <trkpt lat="47.95352" lon="6.95525">
        <ele>521.8</ele>
        <time>2020-08-19T15:32:21Z</time>
      </trkpt>
      <trkpt lat="47.95349" lon="6.9552">
        <ele>522</ele>
        <time>2020-08-19T15:32:27Z</time>
      </trkpt>
      <trkpt lat="47.95345" lon="6.95515">
        <ele>522.4</ele>
        <time>2020-08-19T15:32:33Z</time>
      </trkpt>
      <trkpt lat="47.95342" lon="6.95511">
        <ele>522.9</ele>
        <time>2020-08-19T15:32:43Z</time>
      </trkpt>
      <trkpt lat="47.95337" lon="6.95507">
        <ele>523</ele>
        <time>2020-08-19T15:32:54Z</time>
      </trkpt>
      <trkpt lat="47.95335" lon="6.95502">
        <ele>523.1</ele>
        <time>2020-08-19T15:32:59Z</time>
      </trkpt>
      <trkpt lat="47.95331" lon="6.95496">
        <ele>523.1</ele>
        <time>2020-08-19T15:33:05Z</time>
      </trkpt>
      <trkpt lat="47.95328" lon="6.9549">
        <ele>523.1</ele>
        <time>2020-08-19T15:33:12Z</time>
      </trkpt>
      <trkpt lat="47.95327" lon="6.95484">
        <ele>523.1</ele>
        <time>2020-08-19T15:33:18Z</time>
      </trkpt>
      <trkpt lat="47.95323" lon="6.95478">
        <ele>523.1</ele>
        <time>2020-08-19T15:33:24Z</time>
      </trkpt>
      <trkpt lat="47.9532" lon="6.95472">
        <ele>523.2</ele>
        <time>2020-08-19T15:33:31Z</time>
      </trkpt>
      <trkpt lat="47.95317" lon="6.95467">
        <ele>523</ele>
        <time>2020-08-19T15:33:37Z</time>
      </trkpt>
      <trkpt lat="47.95315" lon="6.9546">
        <ele>522.9</ele>
        <time>2020-08-19T15:33:43Z</time>
      </trkpt>
      <trkpt lat="47.95313" lon="6.95453">
        <ele>523.2</ele>
        <time>2020-08-19T15:33:49Z</time>
      </trkpt>
      <trkpt lat="47.9531" lon="6.95447">
        <ele>523.2</ele>
        <time>2020-08-19T15:33:56Z</time>
      </trkpt>
      <trkpt lat="47.95306" lon="6.95443">
        <ele>523.1</ele>
        <time>2020-08-19T15:34:07Z</time>
      </trkpt>
      <trkpt lat="47.95302" lon="6.95441">
        <ele>523.3</ele>
        <time>2020-08-19T15:35:12Z</time>
      </trkpt>
      <trkpt lat="47.95307" lon="6.95439">
        <ele>522.8</ele>
        <time>2020-08-19T15:36:39Z</time>
      </trkpt>
      <trkpt lat="47.95309" lon="6.95445">
        <ele>521.9</ele>
        <time>2020-08-19T15:36:47Z</time>
      </trkpt>
      <trkpt lat="47.95308" lon="6.95452">
        <ele>521</ele>
        <time>2020-08-19T15:37:04Z</time>
      </trkpt>
      <trkpt lat="47.95312" lon="6.95455">
        <ele>521.6</ele>
        <time>2020-08-19T15:37:11Z</time>
      </trkpt>
      <trkpt lat="47.95315" lon="6.95461">
        <ele>522.5</ele>
        <time>2020-08-19T15:37:17Z</time>
      </trkpt>
      <trkpt lat="47.95318" lon="6.95466">
        <ele>523.4</ele>
        <time>2020-08-19T15:37:22Z</time>
      </trkpt>
      <trkpt lat="47.95322" lon="6.9547">
        <ele>525</ele>
        <time>2020-08-19T15:37:33Z</time>
      </trkpt>
      <trkpt lat="47.95323" lon="6.95478">
        <ele>524</ele>
        <time>2020-08-19T15:38:20Z</time>
      </trkpt>
      <trkpt lat="47.95325" lon="6.95484">
        <ele>523.6</ele>
        <time>2020-08-19T15:38:26Z</time>
      </trkpt>
      <trkpt lat="47.9533" lon="6.95486">
        <ele>523.6</ele>
        <time>2020-08-19T15:38:32Z</time>
      </trkpt>
      <trkpt lat="47.95334" lon="6.95489">
        <ele>524.3</ele>
        <time>2020-08-19T15:39:04Z</time>
      </trkpt>
      <trkpt lat="47.95337" lon="6.95495">
        <ele>524.8</ele>
        <time>2020-08-19T15:39:10Z</time>
      </trkpt>
      <trkpt lat="47.9534" lon="6.95501">
        <ele>525.4</ele>
        <time>2020-08-19T15:39:16Z</time>
      </trkpt>
      <trkpt lat="47.95342" lon="6.95506">
        <ele>525.9</ele>
        <time>2020-08-19T15:39:21Z</time>
      </trkpt>
      <trkpt lat="47.95345" lon="6.95512">
        <ele>527.5</ele>
        <time>2020-08-19T15:39:35Z</time>
      </trkpt>
      <trkpt lat="47.95348" lon="6.95518">
        <ele>527.9</ele>
        <time>2020-08-19T15:39:44Z</time>
      </trkpt>
      <trkpt lat="47.95352" lon="6.95523">
        <ele>527.6</ele>
        <time>2020-08-19T15:39:50Z</time>
      </trkpt>
      <trkpt lat="47.95356" lon="6.95526">
        <ele>526.9</ele>
        <time>2020-08-19T15:39:57Z</time>
      </trkpt>
      <trkpt lat="47.9536" lon="6.95531">
        <ele>526.2</ele>
        <time>2020-08-19T15:40:05Z</time>
      </trkpt>
      <trkpt lat="47.95362" lon="6.95537">
        <ele>525.9</ele>
        <time>2020-08-19T15:40:13Z</time>
      </trkpt>
      <trkpt lat="47.95365" lon="6.95543">
        <ele>525.7</ele>
        <time>2020-08-19T15:40:19Z</time>
      </trkpt>
      <trkpt lat="47.9537" lon="6.95543">
        <ele>525.3</ele>
        <time>2020-08-19T15:40:24Z</time>
      </trkpt>
      <trkpt lat="47.95375" lon="6.95543">
        <ele>524.7</ele>
        <time>2020-08-19T15:40:33Z</time>
      </trkpt>
      <trkpt lat="47.9538" lon="6.95544">
        <ele>524.6</ele>
        <time>2020-08-19T15:40:41Z</time>
      </trkpt>
      <trkpt lat="47.95384" lon="6.95548">
        <ele>524.9</ele>
        <time>2020-08-19T15:40:49Z</time>
      </trkpt>
      <trkpt lat="47.95389" lon="6.95551">
        <ele>525.2</ele>
        <time>2020-08-19T15:40:55Z</time>
      </trkpt>
      <trkpt lat="47.95393" lon="6.95555">
        <ele>525.7</ele>
        <time>2020-08-19T15:41:01Z</time>
      </trkpt>
      <trkpt lat="47.95397" lon="6.9556">
        <ele>526.1</ele>
        <time>2020-08-19T15:41:09Z</time>
      </trkpt>
      <trkpt lat="47.95401" lon="6.95565">
        <ele>526.2</ele>
        <time>2020-08-19T15:41:15Z</time>
      </trkpt>
      <trkpt lat="47.95405" lon="6.95568">
        <ele>526.4</ele>
        <time>2020-08-19T15:41:21Z</time>
      </trkpt>
      <trkpt lat="47.9541" lon="6.9557">
        <ele>526.3</ele>
        <time>2020-08-19T15:41:27Z</time>
      </trkpt>
      <trkpt lat="47.95414" lon="6.95573">
        <ele>526.1</ele>
        <time>2020-08-19T15:41:33Z</time>
      </trkpt>
      <trkpt lat="47.95419" lon="6.95573">
        <ele>526</ele>
        <time>2020-08-19T15:41:40Z</time>
      </trkpt>
      <trkpt lat="47.95424" lon="6.95575">
        <ele>526</ele>
        <time>2020-08-19T15:41:46Z</time>
      </trkpt>
      <trkpt lat="47.95429" lon="6.95576">
        <ele>526.1</ele>
        <time>2020-08-19T15:41:53Z</time>
      </trkpt>
      <trkpt lat="47.95434" lon="6.95578">
        <ele>526.1</ele>
        <time>2020-08-19T15:42:00Z</time>
      </trkpt>
      <trkpt lat="47.95439" lon="6.95576">
        <ele>524.8</ele>
        <time>2020-08-19T15:42:17Z</time>
      </trkpt>
      <trkpt lat="47.95444" lon="6.95576">
        <ele>524.6</ele>
        <time>2020-08-19T15:42:22Z</time>
      </trkpt>
      <trkpt lat="47.95449" lon="6.95577">
        <ele>524.5</ele>
        <time>2020-08-19T15:42:27Z</time>
      </trkpt>
      <trkpt lat="47.95454" lon="6.95575">
        <ele>524.4</ele>
        <time>2020-08-19T15:42:33Z</time>
      </trkpt>
      <trkpt lat="47.95458" lon="6.95575">
        <ele>524.4</ele>
        <time>2020-08-19T15:42:40Z</time>
      </trkpt>
      <trkpt lat="47.95463" lon="6.95573">
        <ele>524.7</ele>
        <time>2020-08-19T15:42:46Z</time>
      </trkpt>
      <trkpt lat="47.95467" lon="6.95571">
        <ele>525.4</ele>
        <time>2020-08-19T15:42:59Z</time>
      </trkpt>
      <trkpt lat="47.95472" lon="6.9557">
        <ele>524.9</ele>
        <time>2020-08-19T15:43:09Z</time>
      </trkpt>
      <trkpt lat="47.95477" lon="6.9557">
        <ele>524.2</ele>
        <time>2020-08-19T15:43:14Z</time>
      </trkpt>
      <trkpt lat="47.95482" lon="6.95571">
        <ele>523.7</ele>
        <time>2020-08-19T15:43:21Z</time>
      </trkpt>
      <trkpt lat="47.95487" lon="6.95572">
        <ele>523.6</ele>
        <time>2020-08-19T15:43:26Z</time>
      </trkpt>
      <trkpt lat="47.95491" lon="6.95573">
        <ele>523.4</ele>
        <time>2020-08-19T15:43:32Z</time>
      </trkpt>
      <trkpt lat="47.95495" lon="6.95576">
        <ele>523.5</ele>
        <time>2020-08-19T15:43:41Z</time>
      </trkpt>
      <trkpt lat="47.955" lon="6.95575">
        <ele>523.6</ele>
        <time>2020-08-19T15:43:50Z</time>
      </trkpt>
      <trkpt lat="47.95501" lon="6.95568">
        <ele>523.4</ele>
        <time>2020-08-19T15:43:57Z</time>
      </trkpt>
      <trkpt lat="47.95502" lon="6.95561">
        <ele>523</ele>
        <time>2020-08-19T15:44:04Z</time>
      </trkpt>
      <trkpt lat="47.95504" lon="6.95555">
        <ele>522.3</ele>
        <time>2020-08-19T15:44:11Z</time>
      </trkpt>
      <trkpt lat="47.95508" lon="6.9555">
        <ele>521.6</ele>
        <time>2020-08-19T15:44:22Z</time>
      </trkpt>
      <trkpt lat="47.95509" lon="6.95543">
        <ele>521.7</ele>
        <time>2020-08-19T15:44:42Z</time>
      </trkpt>
      <trkpt lat="47.95513" lon="6.9554">
        <ele>522.7</ele>
        <time>2020-08-19T15:46:36Z</time>
      </trkpt>
      <trkpt lat="47.95508" lon="6.95538">
        <ele>523.1</ele>
        <time>2020-08-19T15:49:01Z</time>
      </trkpt>
      <trkpt lat="47.95513" lon="6.95538">
        <ele>524.5</ele>
        <time>2020-08-19T15:49:52Z</time>
      </trkpt>
      <trkpt lat="47.95516" lon="6.95543">
        <ele>524.5</ele>
        <time>2020-08-19T15:50:00Z</time>
      </trkpt>
      <trkpt lat="47.9552" lon="6.95547">
        <ele>524.2</ele>
        <time>2020-08-19T15:50:13Z</time>
      </trkpt>
      <trkpt lat="47.95515" lon="6.95545">
        <ele>523.8</ele>
        <time>2020-08-19T15:52:10Z</time>
      </trkpt>
      <trkpt lat="47.95511" lon="6.95542">
        <ele>523.8</ele>
        <time>2020-08-19T15:52:15Z</time>
      </trkpt>
      <trkpt lat="47.9551" lon="6.95549">
        <ele>523.8</ele>
        <time>2020-08-19T15:52:53Z</time>
      </trkpt>
      <trkpt lat="47.95512" lon="6.95555">
        <ele>524.4</ele>
        <time>2020-08-19T15:52:59Z</time>
      </trkpt>
      <trkpt lat="47.95517" lon="6.95552">
        <ele>524.9</ele>
        <time>2020-08-19T15:53:08Z</time>
      </trkpt>
      <trkpt lat="47.95519" lon="6.95558">
        <ele>524.6</ele>
        <time>2020-08-19T15:53:18Z</time>
      </trkpt>
      <trkpt lat="47.9552" lon="6.95551">
        <ele>522</ele>
        <time>2020-08-19T15:53:46Z</time>
      </trkpt>
      <trkpt lat="47.95515" lon="6.9555">
        <ele>521.1</ele>
        <time>2020-08-19T15:54:30Z</time>
      </trkpt>
      <trkpt lat="47.9551" lon="6.95549">
        <ele>521.5</ele>
        <time>2020-08-19T15:54:35Z</time>
      </trkpt>
      <trkpt lat="47.95508" lon="6.95543">
        <ele>522.5</ele>
        <time>2020-08-19T15:54:44Z</time>
      </trkpt>
      <trkpt lat="47.95504" lon="6.95538">
        <ele>522.7</ele>
        <time>2020-08-19T15:57:00Z</time>
      </trkpt>
      <trkpt lat="47.95508" lon="6.95538">
        <ele>523.4</ele>
        <time>2020-08-19T16:00:10Z</time>
      </trkpt>
      <trkpt lat="47.95504" lon="6.95536">
        <ele>527.6</ele>
        <time>2020-08-19T16:04:39Z</time>
      </trkpt>
      <trkpt lat="47.95502" lon="6.9553">
        <ele>526.7</ele>
        <time>2020-08-19T16:09:18Z</time>
      </trkpt>
      <trkpt lat="47.95502" lon="6.95523">
        <ele>527.5</ele>
        <time>2020-08-19T16:11:28Z</time>
      </trkpt>
      <trkpt lat="47.95501" lon="6.95517">
        <ele>528</ele>
        <time>2020-08-19T16:12:04Z</time>
      </trkpt>
      <trkpt lat="47.95506" lon="6.95516">
        <ele>528.7</ele>
        <time>2020-08-19T16:12:54Z</time>
      </trkpt>
      <trkpt lat="47.9551" lon="6.95512">
        <ele>528.9</ele>
        <time>2020-08-19T16:13:00Z</time>
      </trkpt>
      <trkpt lat="47.95515" lon="6.9551">
        <ele>529.1</ele>
        <time>2020-08-19T16:13:07Z</time>
      </trkpt>
      <trkpt lat="47.95519" lon="6.95509">
        <ele>529.3</ele>
        <time>2020-08-19T16:13:23Z</time>
      </trkpt>
      <trkpt lat="47.95523" lon="6.95504">
        <ele>529.9</ele>
        <time>2020-08-19T16:13:54Z</time>
      </trkpt>
      <trkpt lat="47.95527" lon="6.95504">
        <ele>530</ele>
        <time>2020-08-19T16:14:02Z</time>
      </trkpt>
      <trkpt lat="47.95531" lon="6.95507">
        <ele>529.7</ele>
        <time>2020-08-19T16:14:10Z</time>
      </trkpt>
      <trkpt lat="47.95536" lon="6.95506">
        <ele>528.8</ele>
        <time>2020-08-19T16:14:25Z</time>
      </trkpt>
      <trkpt lat="47.9554" lon="6.95504">
        <ele>528.4</ele>
        <time>2020-08-19T16:14:45Z</time>
      </trkpt>
      <trkpt lat="47.95545" lon="6.95502">
        <ele>528.6</ele>
        <time>2020-08-19T16:15:00Z</time>
      </trkpt>
      <trkpt lat="47.95549" lon="6.95503">
        <ele>528.9</ele>
        <time>2020-08-19T16:15:15Z</time>
      </trkpt>
      <trkpt lat="47.95554" lon="6.95502">
        <ele>529.3</ele>
        <time>2020-08-19T16:15:24Z</time>
      </trkpt>
      <trkpt lat="47.95558" lon="6.95505">
        <ele>530.3</ele>
        <time>2020-08-19T16:15:37Z</time>
      </trkpt>
      <trkpt lat="47.95562" lon="6.95501">
        <ele>530.9</ele>
        <time>2020-08-19T16:15:45Z</time>
      </trkpt>
      <trkpt lat="47.95566" lon="6.95498">
        <ele>531.4</ele>
        <time>2020-08-19T16:15:50Z</time>
      </trkpt>
      <trkpt lat="47.9557" lon="6.95493">
        <ele>531.8</ele>
        <time>2020-08-19T16:15:55Z</time>
      </trkpt>
      <trkpt lat="47.95571" lon="6.95486">
        <ele>532.6</ele>
        <time>2020-08-19T16:16:23Z</time>
      </trkpt>
      <trkpt lat="47.95572" lon="6.9548">
        <ele>533.1</ele>
        <time>2020-08-19T16:16:46Z</time>
      </trkpt>
      <trkpt lat="47.95576" lon="6.95475">
        <ele>533</ele>
        <time>2020-08-19T16:16:58Z</time>
      </trkpt>
      <trkpt lat="47.95579" lon="6.95469">
        <ele>532.8</ele>
        <time>2020-08-19T16:17:05Z</time>
      </trkpt>
      <trkpt lat="47.95582" lon="6.95464">
        <ele>532.6</ele>
        <time>2020-08-19T16:17:12Z</time>
      </trkpt>
      <trkpt lat="47.95586" lon="6.95459">
        <ele>532.7</ele>
        <time>2020-08-19T16:17:19Z</time>
      </trkpt>
      <trkpt lat="47.95588" lon="6.95453">
        <ele>532.7</ele>
        <time>2020-08-19T16:17:25Z</time>
      </trkpt>
      <trkpt lat="47.95591" lon="6.95447">
        <ele>532.6</ele>
        <time>2020-08-19T16:17:31Z</time>
      </trkpt>
      <trkpt lat="47.95593" lon="6.95441">
        <ele>532.8</ele>
        <time>2020-08-19T16:17:39Z</time>
      </trkpt>
      <trkpt lat="47.95595" lon="6.95435">
        <ele>533.6</ele>
        <time>2020-08-19T16:17:48Z</time>
      </trkpt>
      <trkpt lat="47.95599" lon="6.95432">
        <ele>538</ele>
        <time>2020-08-19T16:19:43Z</time>
      </trkpt>
      <trkpt lat="47.95603" lon="6.95432">
        <ele>536.8</ele>
        <time>2020-08-19T16:20:08Z</time>
      </trkpt>
      <trkpt lat="47.95608" lon="6.95434">
        <ele>535.7</ele>
        <time>2020-08-19T16:20:50Z</time>
      </trkpt>
      <trkpt lat="47.95612" lon="6.9543">
        <ele>535.3</ele>
        <time>2020-08-19T16:21:21Z</time>
      </trkpt>
      <trkpt lat="47.95611" lon="6.95422">
        <ele>535.5</ele>
        <time>2020-08-19T16:21:26Z</time>
      </trkpt>
      <trkpt lat="47.95611" lon="6.95415">
        <ele>535.7</ele>
        <time>2020-08-19T16:21:30Z</time>
      </trkpt>
      <trkpt lat="47.95609" lon="6.95407">
        <ele>535.8</ele>
        <time>2020-08-19T16:21:35Z</time>
      </trkpt>
      <trkpt lat="47.95608" lon="6.954">
        <ele>536</ele>
        <time>2020-08-19T16:21:39Z</time>
      </trkpt>
      <trkpt lat="47.95606" lon="6.95393">
        <ele>536.2</ele>
        <time>2020-08-19T16:21:44Z</time>
      </trkpt>
      <trkpt lat="47.95605" lon="6.95386">
        <ele>536.8</ele>
        <time>2020-08-19T16:21:54Z</time>
      </trkpt>
      <trkpt lat="47.95608" lon="6.9538">
        <ele>537.1</ele>
        <time>2020-08-19T16:22:05Z</time>
      </trkpt>
      <trkpt lat="47.95613" lon="6.95381">
        <ele>537.2</ele>
        <time>2020-08-19T16:22:10Z</time>
      </trkpt>
      <trkpt lat="47.95618" lon="6.95383">
        <ele>537.6</ele>
        <time>2020-08-19T16:22:15Z</time>
      </trkpt>
      <trkpt lat="47.95622" lon="6.95386">
        <ele>538.3</ele>
        <time>2020-08-19T16:22:21Z</time>
      </trkpt>
      <trkpt lat="47.95627" lon="6.95389">
        <ele>539.2</ele>
        <time>2020-08-19T16:22:28Z</time>
      </trkpt>
      <trkpt lat="47.95625" lon="6.95396">
        <ele>541.8</ele>
        <time>2020-08-19T16:22:59Z</time>
      </trkpt>
      <trkpt lat="47.95625" lon="6.95402">
        <ele>542.2</ele>
        <time>2020-08-19T16:23:45Z</time>
      </trkpt>
      <trkpt lat="47.95623" lon="6.95408">
        <ele>541</ele>
        <time>2020-08-19T16:24:12Z</time>
      </trkpt>
      <trkpt lat="47.9562" lon="6.95414">
        <ele>540.5</ele>
        <time>2020-08-19T16:24:22Z</time>
      </trkpt>
      <trkpt lat="47.95617" lon="6.95419">
        <ele>539.9</ele>
        <time>2020-08-19T16:24:31Z</time>
      </trkpt>
      <trkpt lat="47.95613" lon="6.95424">
        <ele>540.4</ele>
        <time>2020-08-19T16:25:41Z</time>
      </trkpt>
      <trkpt lat="47.95615" lon="6.95418">
        <ele>538.4</ele>
        <time>2020-08-19T16:27:06Z</time>
      </trkpt>
      <trkpt lat="47.95619" lon="6.95412">
        <ele>537.9</ele>
        <time>2020-08-19T16:27:29Z</time>
      </trkpt>
      <trkpt lat="47.95623" lon="6.95407">
        <ele>537.6</ele>
        <time>2020-08-19T16:27:35Z</time>
      </trkpt>
      <trkpt lat="47.95627" lon="6.95404">
        <ele>536.6</ele>
        <time>2020-08-19T16:27:46Z</time>
      </trkpt>
      <trkpt lat="47.95631" lon="6.95402">
        <ele>535.9</ele>
        <time>2020-08-19T16:29:03Z</time>
      </trkpt>
      <trkpt lat="47.95637" lon="6.95402">
        <ele>535.9</ele>
        <time>2020-08-19T16:29:09Z</time>
      </trkpt>
      <trkpt lat="47.95642" lon="6.95402">
        <ele>536.3</ele>
        <time>2020-08-19T16:29:15Z</time>
      </trkpt>
      <trkpt lat="47.95646" lon="6.95403">
        <ele>536.7</ele>
        <time>2020-08-19T16:29:21Z</time>
      </trkpt>
      <trkpt lat="47.95651" lon="6.95404">
        <ele>537.2</ele>
        <time>2020-08-19T16:29:28Z</time>
      </trkpt>
      <trkpt lat="47.95655" lon="6.95407">
        <ele>538.7</ele>
        <time>2020-08-19T16:30:12Z</time>
      </trkpt>
      <trkpt lat="47.9566" lon="6.9541">
        <ele>539</ele>
        <time>2020-08-19T16:30:18Z</time>
      </trkpt>
      <trkpt lat="47.95664" lon="6.95413">
        <ele>539.3</ele>
        <time>2020-08-19T16:30:23Z</time>
      </trkpt>
      <trkpt lat="47.95669" lon="6.95417">
        <ele>539.6</ele>
        <time>2020-08-19T16:30:28Z</time>
      </trkpt>
      <trkpt lat="47.95673" lon="6.95422">
        <ele>539.8</ele>
        <time>2020-08-19T16:30:34Z</time>
      </trkpt>
      <trkpt lat="47.95677" lon="6.95426">
        <ele>540.2</ele>
        <time>2020-08-19T16:30:42Z</time>
      </trkpt>
      <trkpt lat="47.95681" lon="6.95429">
        <ele>540.4</ele>
        <time>2020-08-19T16:30:50Z</time>
      </trkpt>
      <trkpt lat="47.95686" lon="6.95427">
        <ele>541</ele>
        <time>2020-08-19T16:32:29Z</time>
      </trkpt>
      <trkpt lat="47.9569" lon="6.95428">
        <ele>541.7</ele>
        <time>2020-08-19T16:32:43Z</time>
      </trkpt>
      <trkpt lat="47.95695" lon="6.9543">
        <ele>542.5</ele>
        <time>2020-08-19T16:32:51Z</time>
      </trkpt>
      <trkpt lat="47.957" lon="6.95431">
        <ele>543</ele>
        <time>2020-08-19T16:32:56Z</time>
      </trkpt>
      <trkpt lat="47.95705" lon="6.95432">
        <ele>543.6</ele>
        <time>2020-08-19T16:33:01Z</time>
      </trkpt>
      <trkpt lat="47.9571" lon="6.95433">
        <ele>544.1</ele>
        <time>2020-08-19T16:33:06Z</time>
      </trkpt>
      <trkpt lat="47.95715" lon="6.95435">
        <ele>544.6</ele>
        <time>2020-08-19T16:33:10Z</time>
      </trkpt>
      <trkpt lat="47.9572" lon="6.95438">
        <ele>545.1</ele>
        <time>2020-08-19T16:33:14Z</time>
      </trkpt>
      <trkpt lat="47.95724" lon="6.95441">
        <ele>546.4</ele>
        <time>2020-08-19T16:33:45Z</time>
      </trkpt>
      <trkpt lat="47.95728" lon="6.95443">
        <ele>546.4</ele>
        <time>2020-08-19T16:33:54Z</time>
      </trkpt>
      <trkpt lat="47.95733" lon="6.95444">
        <ele>546.4</ele>
        <time>2020-08-19T16:34:00Z</time>
      </trkpt>
      <trkpt lat="47.95738" lon="6.95444">
        <ele>546.5</ele>
        <time>2020-08-19T16:34:05Z</time>
      </trkpt>
      <trkpt lat="47.95742" lon="6.95443">
        <ele>546.5</ele>
        <time>2020-08-19T16:34:10Z</time>
      </trkpt>
      <trkpt lat="47.95747" lon="6.95441">
        <ele>545.9</ele>
        <time>2020-08-19T16:34:27Z</time>
      </trkpt>
      <trkpt lat="47.95751" lon="6.95443">
        <ele>545.7</ele>
        <time>2020-08-19T16:34:46Z</time>
      </trkpt>
      <trkpt lat="47.95755" lon="6.95449">
        <ele>545.4</ele>
        <time>2020-08-19T16:34:51Z</time>
      </trkpt>
      <trkpt lat="47.95758" lon="6.95455">
        <ele>545.2</ele>
        <time>2020-08-19T16:34:55Z</time>
      </trkpt>
      <trkpt lat="47.95761" lon="6.9546">
        <ele>545</ele>
        <time>2020-08-19T16:34:58Z</time>
      </trkpt>
      <trkpt lat="47.95764" lon="6.95466">
        <ele>544.8</ele>
        <time>2020-08-19T16:35:02Z</time>
      </trkpt>
      <trkpt lat="47.95765" lon="6.95473">
        <ele>544.2</ele>
        <time>2020-08-19T16:35:08Z</time>
      </trkpt>
      <trkpt lat="47.95767" lon="6.9548">
        <ele>543.8</ele>
        <time>2020-08-19T16:35:13Z</time>
      </trkpt>
      <trkpt lat="47.95766" lon="6.95487">
        <ele>543.3</ele>
        <time>2020-08-19T16:35:18Z</time>
      </trkpt>
      <trkpt lat="47.95764" lon="6.95493">
        <ele>543</ele>
        <time>2020-08-19T16:35:22Z</time>
      </trkpt>
      <trkpt lat="47.95762" lon="6.955">
        <ele>542.6</ele>
        <time>2020-08-19T16:35:27Z</time>
      </trkpt>
      <trkpt lat="47.95759" lon="6.95506">
        <ele>542.1</ele>
        <time>2020-08-19T16:35:32Z</time>
      </trkpt>
      <trkpt lat="47.95758" lon="6.95513">
        <ele>541.7</ele>
        <time>2020-08-19T16:35:37Z</time>
      </trkpt>
      <trkpt lat="47.95756" lon="6.95521">
        <ele>541.3</ele>
        <time>2020-08-19T16:35:42Z</time>
      </trkpt>
      <trkpt lat="47.95757" lon="6.95528">
        <ele>541</ele>
        <time>2020-08-19T16:35:45Z</time>
      </trkpt>
      <trkpt lat="47.95756" lon="6.95535">
        <ele>540.6</ele>
        <time>2020-08-19T16:35:49Z</time>
      </trkpt>
      <trkpt lat="47.95755" lon="6.95542">
        <ele>540.2</ele>
        <time>2020-08-19T16:35:54Z</time>
      </trkpt>
      <trkpt lat="47.95753" lon="6.9555">
        <ele>539.5</ele>
        <time>2020-08-19T16:36:00Z</time>
      </trkpt>
      <trkpt lat="47.95752" lon="6.95557">
        <ele>538.9</ele>
        <time>2020-08-19T16:36:05Z</time>
      </trkpt>
      <trkpt lat="47.95753" lon="6.95565">
        <ele>538.4</ele>
        <time>2020-08-19T16:36:10Z</time>
      </trkpt>
      <trkpt lat="47.95755" lon="6.95572">
        <ele>538</ele>
        <time>2020-08-19T16:36:14Z</time>
      </trkpt>
      <trkpt lat="47.95757" lon="6.95579">
        <ele>537.4</ele>
        <time>2020-08-19T16:36:19Z</time>
      </trkpt>
      <trkpt lat="47.9576" lon="6.95584">
        <ele>536.9</ele>
        <time>2020-08-19T16:36:23Z</time>
      </trkpt>
      <trkpt lat="47.95764" lon="6.95588">
        <ele>536.6</ele>
        <time>2020-08-19T16:36:27Z</time>
      </trkpt>
      <trkpt lat="47.95767" lon="6.95595">
        <ele>536.5</ele>
        <time>2020-08-19T16:36:32Z</time>
      </trkpt>
      <trkpt lat="47.95768" lon="6.95602">
        <ele>536.9</ele>
        <time>2020-08-19T16:36:36Z</time>
      </trkpt>
      <trkpt lat="47.9577" lon="6.95608">
        <ele>538.1</ele>
        <time>2020-08-19T16:36:50Z</time>
      </trkpt>
      <trkpt lat="47.95774" lon="6.95613">
        <ele>538.4</ele>
        <time>2020-08-19T16:36:55Z</time>
      </trkpt>
      <trkpt lat="47.95778" lon="6.95617">
        <ele>538.7</ele>
        <time>2020-08-19T16:36:59Z</time>
      </trkpt>
      <trkpt lat="47.95781" lon="6.95622">
        <ele>539.1</ele>
        <time>2020-08-19T16:37:03Z</time>
      </trkpt>
      <trkpt lat="47.95785" lon="6.95628">
        <ele>539.5</ele>
        <time>2020-08-19T16:37:08Z</time>
      </trkpt>
      <trkpt lat="47.95788" lon="6.95633">
        <ele>540</ele>
        <time>2020-08-19T16:37:14Z</time>
      </trkpt>
      <trkpt lat="47.95791" lon="6.95639">
        <ele>540.4</ele>
        <time>2020-08-19T16:37:19Z</time>
      </trkpt>
      <trkpt lat="47.95794" lon="6.95645">
        <ele>540.9</ele>
        <time>2020-08-19T16:37:25Z</time>
      </trkpt>
      <trkpt lat="47.95798" lon="6.95649">
        <ele>541.3</ele>
        <time>2020-08-19T16:37:30Z</time>
      </trkpt>
      <trkpt lat="47.95803" lon="6.9565">
        <ele>545</ele>
        <time>2020-08-19T16:39:16Z</time>
      </trkpt>
      <trkpt lat="47.95808" lon="6.9565">
        <ele>545.6</ele>
        <time>2020-08-19T16:39:22Z</time>
      </trkpt>
      <trkpt lat="47.95812" lon="6.9565">
        <ele>545.9</ele>
        <time>2020-08-19T16:39:27Z</time>
      </trkpt>
      <trkpt lat="47.95817" lon="6.95648">
        <ele>546.2</ele>
        <time>2020-08-19T16:39:31Z</time>
      </trkpt>
      <trkpt lat="47.95823" lon="6.95648">
        <ele>546.4</ele>
        <time>2020-08-19T16:39:35Z</time>
      </trkpt>
      <trkpt lat="47.95827" lon="6.95651">
        <ele>547.6</ele>
        <time>2020-08-19T16:39:48Z</time>
      </trkpt>
      <trkpt lat="47.95832" lon="6.95649">
        <ele>548</ele>
        <time>2020-08-19T16:39:54Z</time>
      </trkpt>
      <trkpt lat="47.95836" lon="6.95647">
        <ele>548.5</ele>
        <time>2020-08-19T16:40:00Z</time>
      </trkpt>
      <trkpt lat="47.9584" lon="6.95646">
        <ele>549</ele>
        <time>2020-08-19T16:40:07Z</time>
      </trkpt>
      <trkpt lat="47.95845" lon="6.95646">
        <ele>549.4</ele>
        <time>2020-08-19T16:40:17Z</time>
      </trkpt>
      <trkpt lat="47.9585" lon="6.95645">
        <ele>549.6</ele>
        <time>2020-08-19T16:40:33Z</time>
      </trkpt>
      <trkpt lat="47.95855" lon="6.95647">
        <ele>549.5</ele>
        <time>2020-08-19T16:40:38Z</time>
      </trkpt>
      <trkpt lat="47.9586" lon="6.95646">
        <ele>549.4</ele>
        <time>2020-08-19T16:40:42Z</time>
      </trkpt>
      <trkpt lat="47.95865" lon="6.95644">
        <ele>549.4</ele>
        <time>2020-08-19T16:40:46Z</time>
      </trkpt>
      <trkpt lat="47.9587" lon="6.95643">
        <ele>549.3</ele>
        <time>2020-08-19T16:40:51Z</time>
      </trkpt>
      <trkpt lat="47.95875" lon="6.95644">
        <ele>549.4</ele>
        <time>2020-08-19T16:40:56Z</time>
      </trkpt>
      <trkpt lat="47.95879" lon="6.9564">
        <ele>549.3</ele>
        <time>2020-08-19T16:41:02Z</time>
      </trkpt>
      <trkpt lat="47.95883" lon="6.95637">
        <ele>549.1</ele>
        <time>2020-08-19T16:41:07Z</time>
      </trkpt>
      <trkpt lat="47.95888" lon="6.95635">
        <ele>548.8</ele>
        <time>2020-08-19T16:41:13Z</time>
      </trkpt>
      <trkpt lat="47.95893" lon="6.95639">
        <ele>548.6</ele>
        <time>2020-08-19T16:41:20Z</time>
      </trkpt>
      <trkpt lat="47.95898" lon="6.9564">
        <ele>548.2</ele>
        <time>2020-08-19T16:41:26Z</time>
      </trkpt>
      <trkpt lat="47.95903" lon="6.95641">
        <ele>547.7</ele>
        <time>2020-08-19T16:41:32Z</time>
      </trkpt>
      <trkpt lat="47.95908" lon="6.95639">
        <ele>547.5</ele>
        <time>2020-08-19T16:41:38Z</time>
      </trkpt>
      <trkpt lat="47.95912" lon="6.95641">
        <ele>547.4</ele>
        <time>2020-08-19T16:41:58Z</time>
      </trkpt>
      <trkpt lat="47.95917" lon="6.95642">
        <ele>547.6</ele>
        <time>2020-08-19T16:42:06Z</time>
      </trkpt>
      <trkpt lat="47.95922" lon="6.95641">
        <ele>547.8</ele>
        <time>2020-08-19T16:42:12Z</time>
      </trkpt>
      <trkpt lat="47.95927" lon="6.95643">
        <ele>548</ele>
        <time>2020-08-19T16:42:17Z</time>
      </trkpt>
      <trkpt lat="47.95932" lon="6.95644">
        <ele>548.1</ele>
        <time>2020-08-19T16:42:20Z</time>
      </trkpt>
      <trkpt lat="47.95937" lon="6.95645">
        <ele>548.2</ele>
        <time>2020-08-19T16:42:24Z</time>
      </trkpt>
      <trkpt lat="47.95941" lon="6.95647">
        <ele>548.4</ele>
        <time>2020-08-19T16:42:30Z</time>
      </trkpt>
      <trkpt lat="47.95946" lon="6.95649">
        <ele>548.7</ele>
        <time>2020-08-19T16:42:38Z</time>
      </trkpt>
      <trkpt lat="47.95951" lon="6.95651">
        <ele>549.2</ele>
        <time>2020-08-19T16:42:46Z</time>
      </trkpt>
      <trkpt lat="47.95956" lon="6.95651">
        <ele>549.5</ele>
        <time>2020-08-19T16:42:51Z</time>
      </trkpt>
      <trkpt lat="47.95961" lon="6.95653">
        <ele>549.9</ele>
        <time>2020-08-19T16:42:56Z</time>
      </trkpt>
      <trkpt lat="47.95966" lon="6.95654">
        <ele>550.2</ele>
        <time>2020-08-19T16:43:01Z</time>
      </trkpt>
      <trkpt lat="47.9597" lon="6.95651">
        <ele>550.4</ele>
        <time>2020-08-19T16:43:08Z</time>
      </trkpt>
      <trkpt lat="47.95975" lon="6.9565">
        <ele>550.9</ele>
        <time>2020-08-19T16:43:15Z</time>
      </trkpt>
      <trkpt lat="47.9598" lon="6.9565">
        <ele>551.4</ele>
        <time>2020-08-19T16:43:19Z</time>
      </trkpt>
      <trkpt lat="47.95985" lon="6.95651">
        <ele>551.8</ele>
        <time>2020-08-19T16:43:23Z</time>
      </trkpt>
      <trkpt lat="47.9599" lon="6.95653">
        <ele>552.2</ele>
        <time>2020-08-19T16:43:27Z</time>
      </trkpt>
      <trkpt lat="47.95994" lon="6.95652">
        <ele>552.7</ele>
        <time>2020-08-19T16:43:31Z</time>
      </trkpt>
      <trkpt lat="47.96" lon="6.95653">
        <ele>553.2</ele>
        <time>2020-08-19T16:43:35Z</time>
      </trkpt>
      <trkpt lat="47.96004" lon="6.95655">
        <ele>553.7</ele>
        <time>2020-08-19T16:43:39Z</time>
      </trkpt>
      <trkpt lat="47.9601" lon="6.95655">
        <ele>554.3</ele>
        <time>2020-08-19T16:43:44Z</time>
      </trkpt>
      <trkpt lat="47.96014" lon="6.95654">
        <ele>554.9</ele>
        <time>2020-08-19T16:43:49Z</time>
      </trkpt>
      <trkpt lat="47.96019" lon="6.95651">
        <ele>555.5</ele>
        <time>2020-08-19T16:43:54Z</time>
      </trkpt>
      <trkpt lat="47.96023" lon="6.95649">
        <ele>555.8</ele>
        <time>2020-08-19T16:43:58Z</time>
      </trkpt>
      <trkpt lat="47.96028" lon="6.95648">
        <ele>556.4</ele>
        <time>2020-08-19T16:44:04Z</time>
      </trkpt>
      <trkpt lat="47.96033" lon="6.95648">
        <ele>557</ele>
        <time>2020-08-19T16:44:10Z</time>
      </trkpt>
      <trkpt lat="47.96038" lon="6.95646">
        <ele>557.2</ele>
        <time>2020-08-19T16:44:14Z</time>
      </trkpt>
      <trkpt lat="47.96042" lon="6.95645">
        <ele>557.1</ele>
        <time>2020-08-19T16:44:17Z</time>
      </trkpt>
      <trkpt lat="47.96047" lon="6.95643">
        <ele>557.2</ele>
        <time>2020-08-19T16:44:21Z</time>
      </trkpt>
      <trkpt lat="47.96052" lon="6.95643">
        <ele>557.2</ele>
        <time>2020-08-19T16:44:25Z</time>
      </trkpt>
      <trkpt lat="47.96057" lon="6.9564">
        <ele>557</ele>
        <time>2020-08-19T16:44:29Z</time>
      </trkpt>
      <trkpt lat="47.96062" lon="6.95638">
        <ele>556.9</ele>
        <time>2020-08-19T16:44:34Z</time>
      </trkpt>
      <trkpt lat="47.96067" lon="6.95637">
        <ele>556.6</ele>
        <time>2020-08-19T16:44:38Z</time>
      </trkpt>
      <trkpt lat="47.96072" lon="6.95637">
        <ele>556.2</ele>
        <time>2020-08-19T16:44:42Z</time>
      </trkpt>
      <trkpt lat="47.96077" lon="6.95637">
        <ele>555.9</ele>
        <time>2020-08-19T16:44:46Z</time>
      </trkpt>
      <trkpt lat="47.96082" lon="6.95638">
        <ele>555.7</ele>
        <time>2020-08-19T16:44:51Z</time>
      </trkpt>
      <trkpt lat="47.96086" lon="6.95636">
        <ele>555.8</ele>
        <time>2020-08-19T16:44:56Z</time>
      </trkpt>
      <trkpt lat="47.96091" lon="6.95634">
        <ele>556</ele>
        <time>2020-08-19T16:45:00Z</time>
      </trkpt>
      <trkpt lat="47.96095" lon="6.95633">
        <ele>556.1</ele>
        <time>2020-08-19T16:45:04Z</time>
      </trkpt>
      <trkpt lat="47.961" lon="6.9563">
        <ele>556.2</ele>
        <time>2020-08-19T16:45:09Z</time>
      </trkpt>
      <trkpt lat="47.96104" lon="6.95628">
        <ele>556.3</ele>
        <time>2020-08-19T16:45:14Z</time>
      </trkpt>
      <trkpt lat="47.96109" lon="6.95627">
        <ele>556.5</ele>
        <time>2020-08-19T16:45:19Z</time>
      </trkpt>
      <trkpt lat="47.96114" lon="6.95626">
        <ele>556.7</ele>
        <time>2020-08-19T16:45:24Z</time>
      </trkpt>
      <trkpt lat="47.96118" lon="6.95622">
        <ele>556.9</ele>
        <time>2020-08-19T16:45:29Z</time>
      </trkpt>
      <trkpt lat="47.96123" lon="6.9562">
        <ele>557.3</ele>
        <time>2020-08-19T16:45:34Z</time>
      </trkpt>
      <trkpt lat="47.96128" lon="6.95617">
        <ele>557.5</ele>
        <time>2020-08-19T16:45:39Z</time>
      </trkpt>
      <trkpt lat="47.96133" lon="6.95613">
        <ele>557.7</ele>
        <time>2020-08-19T16:45:44Z</time>
      </trkpt>
      <trkpt lat="47.96137" lon="6.9561">
        <ele>558</ele>
        <time>2020-08-19T16:45:48Z</time>
      </trkpt>
      <trkpt lat="47.96142" lon="6.95608">
        <ele>558.4</ele>
        <time>2020-08-19T16:45:53Z</time>
      </trkpt>
      <trkpt lat="47.96146" lon="6.95606">
        <ele>558.7</ele>
        <time>2020-08-19T16:45:57Z</time>
      </trkpt>
      <trkpt lat="47.9615" lon="6.95603">
        <ele>558.8</ele>
        <time>2020-08-19T16:46:01Z</time>
      </trkpt>
      <trkpt lat="47.96155" lon="6.956">
        <ele>559.1</ele>
        <time>2020-08-19T16:46:06Z</time>
      </trkpt>
      <trkpt lat="47.9616" lon="6.95598">
        <ele>559</ele>
        <time>2020-08-19T16:46:11Z</time>
      </trkpt>
      <trkpt lat="47.96165" lon="6.95595">
        <ele>558.6</ele>
        <time>2020-08-19T16:46:16Z</time>
      </trkpt>
      <trkpt lat="47.9617" lon="6.95592">
        <ele>558.3</ele>
        <time>2020-08-19T16:46:21Z</time>
      </trkpt>
      <trkpt lat="47.96174" lon="6.95588">
        <ele>558.3</ele>
        <time>2020-08-19T16:46:26Z</time>
      </trkpt>
      <trkpt lat="47.96177" lon="6.95582">
        <ele>558.1</ele>
        <time>2020-08-19T16:46:33Z</time>
      </trkpt>
      <trkpt lat="47.96182" lon="6.95579">
        <ele>558.1</ele>
        <time>2020-08-19T16:46:40Z</time>
      </trkpt>
      <trkpt lat="47.96186" lon="6.95576">
        <ele>558.3</ele>
        <time>2020-08-19T16:46:45Z</time>
      </trkpt>
      <trkpt lat="47.96191" lon="6.95574">
        <ele>558.4</ele>
        <time>2020-08-19T16:46:51Z</time>
      </trkpt>
      <trkpt lat="47.96196" lon="6.95573">
        <ele>558.6</ele>
        <time>2020-08-19T16:46:54Z</time>
      </trkpt>
      <trkpt lat="47.96202" lon="6.95573">
        <ele>558.9</ele>
        <time>2020-08-19T16:46:57Z</time>
      </trkpt>
      <trkpt lat="47.96208" lon="6.95573">
        <ele>559.1</ele>
        <time>2020-08-19T16:47:00Z</time>
      </trkpt>
      <trkpt lat="47.96212" lon="6.95574">
        <ele>559.3</ele>
        <time>2020-08-19T16:47:05Z</time>
      </trkpt>
      <trkpt lat="47.96217" lon="6.95573">
        <ele>559.5</ele>
        <time>2020-08-19T16:47:13Z</time>
      </trkpt>
      <trkpt lat="47.96222" lon="6.95573">
        <ele>559.6</ele>
        <time>2020-08-19T16:47:17Z</time>
      </trkpt>
      <trkpt lat="47.96227" lon="6.95571">
        <ele>559.7</ele>
        <time>2020-08-19T16:47:22Z</time>
      </trkpt>
      <trkpt lat="47.96232" lon="6.95571">
        <ele>559.8</ele>
        <time>2020-08-19T16:47:27Z</time>
      </trkpt>
      <trkpt lat="47.96237" lon="6.95569">
        <ele>559.8</ele>
        <time>2020-08-19T16:47:31Z</time>
      </trkpt>
      <trkpt lat="47.96241" lon="6.95567">
        <ele>559.9</ele>
        <time>2020-08-19T16:47:35Z</time>
      </trkpt>
      <trkpt lat="47.96246" lon="6.95568">
        <ele>559.9</ele>
        <time>2020-08-19T16:47:40Z</time>
      </trkpt>
      <trkpt lat="47.96251" lon="6.9557">
        <ele>559.9</ele>
        <time>2020-08-19T16:47:45Z</time>
      </trkpt>
      <trkpt lat="47.96256" lon="6.9557">
        <ele>560</ele>
        <time>2020-08-19T16:47:50Z</time>
      </trkpt>
      <trkpt lat="47.9626" lon="6.95571">
        <ele>560.1</ele>
        <time>2020-08-19T16:47:54Z</time>
      </trkpt>
      <trkpt lat="47.96265" lon="6.95573">
        <ele>560.1</ele>
        <time>2020-08-19T16:47:59Z</time>
      </trkpt>
      <trkpt lat="47.9627" lon="6.95573">
        <ele>560.1</ele>
        <time>2020-08-19T16:48:03Z</time>
      </trkpt>
      <trkpt lat="47.96276" lon="6.95573">
        <ele>560</ele>
        <time>2020-08-19T16:48:07Z</time>
      </trkpt>
      <trkpt lat="47.96281" lon="6.95574">
        <ele>559.9</ele>
        <time>2020-08-19T16:48:11Z</time>
      </trkpt>
      <trkpt lat="47.96286" lon="6.95575">
        <ele>559.9</ele>
        <time>2020-08-19T16:48:16Z</time>
      </trkpt>
      <trkpt lat="47.96292" lon="6.95576">
        <ele>559.8</ele>
        <time>2020-08-19T16:48:21Z</time>
      </trkpt>
      <trkpt lat="47.96298" lon="6.95578">
        <ele>559.8</ele>
        <time>2020-08-19T16:48:25Z</time>
      </trkpt>
      <trkpt lat="47.96303" lon="6.95579">
        <ele>559.7</ele>
        <time>2020-08-19T16:48:29Z</time>
      </trkpt>
      <trkpt lat="47.96309" lon="6.95581">
        <ele>559.7</ele>
        <time>2020-08-19T16:48:33Z</time>
      </trkpt>
      <trkpt lat="47.96313" lon="6.95582">
        <ele>559.7</ele>
        <time>2020-08-19T16:48:37Z</time>
      </trkpt>
      <trkpt lat="47.96319" lon="6.95581">
        <ele>559.4</ele>
        <time>2020-08-19T16:48:41Z</time>
      </trkpt>
      <trkpt lat="47.96324" lon="6.95583">
        <ele>559</ele>
        <time>2020-08-19T16:48:45Z</time>
      </trkpt>
      <trkpt lat="47.96329" lon="6.95586">
        <ele>558.6</ele>
        <time>2020-08-19T16:48:49Z</time>
      </trkpt>
      <trkpt lat="47.96334" lon="6.95587">
        <ele>558</ele>
        <time>2020-08-19T16:48:53Z</time>
      </trkpt>
      <trkpt lat="47.96339" lon="6.95587">
        <ele>557.8</ele>
        <time>2020-08-19T16:48:57Z</time>
      </trkpt>
      <trkpt lat="47.96344" lon="6.95588">
        <ele>557.5</ele>
        <time>2020-08-19T16:49:01Z</time>
      </trkpt>
      <trkpt lat="47.96349" lon="6.95589">
        <ele>557.2</ele>
        <time>2020-08-19T16:49:06Z</time>
      </trkpt>
      <trkpt lat="47.96354" lon="6.9559">
        <ele>556.9</ele>
        <time>2020-08-19T16:49:10Z</time>
      </trkpt>
      <trkpt lat="47.96358" lon="6.95592">
        <ele>556.5</ele>
        <time>2020-08-19T16:49:14Z</time>
      </trkpt>
      <trkpt lat="47.96363" lon="6.95593">
        <ele>556.2</ele>
        <time>2020-08-19T16:49:18Z</time>
      </trkpt>
      <trkpt lat="47.96367" lon="6.95595">
        <ele>555.8</ele>
        <time>2020-08-19T16:49:23Z</time>
      </trkpt>
      <trkpt lat="47.96371" lon="6.95599">
        <ele>555.4</ele>
        <time>2020-08-19T16:49:28Z</time>
      </trkpt>
      <trkpt lat="47.96376" lon="6.95602">
        <ele>555.1</ele>
        <time>2020-08-19T16:49:33Z</time>
      </trkpt>
      <trkpt lat="47.96381" lon="6.95604">
        <ele>554.8</ele>
        <time>2020-08-19T16:49:37Z</time>
      </trkpt>
      <trkpt lat="47.96386" lon="6.95606">
        <ele>554.7</ele>
        <time>2020-08-19T16:49:42Z</time>
      </trkpt>
      <trkpt lat="47.9639" lon="6.95608">
        <ele>554.6</ele>
        <time>2020-08-19T16:49:46Z</time>
      </trkpt>
      <trkpt lat="47.96395" lon="6.95612">
        <ele>554.5</ele>
        <time>2020-08-19T16:49:51Z</time>
      </trkpt>
      <trkpt lat="47.964" lon="6.95616">
        <ele>554.4</ele>
        <time>2020-08-19T16:49:56Z</time>
      </trkpt>
      <trkpt lat="47.96404" lon="6.95619">
        <ele>554.4</ele>
        <time>2020-08-19T16:50:00Z</time>
      </trkpt>
      <trkpt lat="47.96402" lon="6.95625">
        <ele>555.8</ele>
        <time>2020-08-19T16:50:18Z</time>
      </trkpt>
      <trkpt lat="47.964" lon="6.95631">
        <ele>556.2</ele>
        <time>2020-08-19T16:50:26Z</time>
      </trkpt>
      <trkpt lat="47.96397" lon="6.95638">
        <ele>556.4</ele>
        <time>2020-08-19T16:50:32Z</time>
      </trkpt>
      <trkpt lat="47.96396" lon="6.95646">
        <ele>556.3</ele>
        <time>2020-08-19T16:50:37Z</time>
      </trkpt>
      <trkpt lat="47.96396" lon="6.95653">
        <ele>556</ele>
        <time>2020-08-19T16:50:43Z</time>
      </trkpt>
      <trkpt lat="47.96394" lon="6.95659">
        <ele>555.5</ele>
        <time>2020-08-19T16:50:47Z</time>
      </trkpt>
      <trkpt lat="47.96393" lon="6.95667">
        <ele>554.4</ele>
        <time>2020-08-19T16:50:52Z</time>
      </trkpt>
      <trkpt lat="47.96395" lon="6.95673">
        <ele>553.4</ele>
        <time>2020-08-19T16:50:56Z</time>
      </trkpt>
      <trkpt lat="47.964" lon="6.95678">
        <ele>552.5</ele>
        <time>2020-08-19T16:51:00Z</time>
      </trkpt>
      <trkpt lat="47.96404" lon="6.95681">
        <ele>551.6</ele>
        <time>2020-08-19T16:51:04Z</time>
      </trkpt>
      <trkpt lat="47.96409" lon="6.95685">
        <ele>550.6</ele>
        <time>2020-08-19T16:51:09Z</time>
      </trkpt>
      <trkpt lat="47.96414" lon="6.95686">
        <ele>549.8</ele>
        <time>2020-08-19T16:51:14Z</time>
      </trkpt>
      <trkpt lat="47.96419" lon="6.95688">
        <ele>548.8</ele>
        <time>2020-08-19T16:51:20Z</time>
      </trkpt>
      <trkpt lat="47.96422" lon="6.95694">
        <ele>547.4</ele>
        <time>2020-08-19T16:51:27Z</time>
      </trkpt>
      <trkpt lat="47.96422" lon="6.95701">
        <ele>546.6</ele>
        <time>2020-08-19T16:51:32Z</time>
      </trkpt>
      <trkpt lat="47.96423" lon="6.95708">
        <ele>546</ele>
        <time>2020-08-19T16:51:36Z</time>
      </trkpt>
      <trkpt lat="47.96426" lon="6.95714">
        <ele>545.2</ele>
        <time>2020-08-19T16:51:46Z</time>
      </trkpt>
      <trkpt lat="47.96426" lon="6.95721">
        <ele>545</ele>
        <time>2020-08-19T16:51:52Z</time>
      </trkpt>
      <trkpt lat="47.96427" lon="6.95728">
        <ele>544.6</ele>
        <time>2020-08-19T16:51:57Z</time>
      </trkpt>
      <trkpt lat="47.96428" lon="6.95736">
        <ele>544.2</ele>
        <time>2020-08-19T16:52:02Z</time>
      </trkpt>
      <trkpt lat="47.9643" lon="6.95743">
        <ele>543.3</ele>
        <time>2020-08-19T16:52:07Z</time>
      </trkpt>
      <trkpt lat="47.96431" lon="6.95749">
        <ele>542.5</ele>
        <time>2020-08-19T16:52:11Z</time>
      </trkpt>
      <trkpt lat="47.96433" lon="6.95756">
        <ele>542</ele>
        <time>2020-08-19T16:52:15Z</time>
      </trkpt>
      <trkpt lat="47.96434" lon="6.95764">
        <ele>541.5</ele>
        <time>2020-08-19T16:52:19Z</time>
      </trkpt>
      <trkpt lat="47.96435" lon="6.95772">
        <ele>541.1</ele>
        <time>2020-08-19T16:52:24Z</time>
      </trkpt>
      <trkpt lat="47.96435" lon="6.9578">
        <ele>540.8</ele>
        <time>2020-08-19T16:52:29Z</time>
      </trkpt>
      <trkpt lat="47.96434" lon="6.95787">
        <ele>540.5</ele>
        <time>2020-08-19T16:52:35Z</time>
      </trkpt>
      <trkpt lat="47.96435" lon="6.95794">
        <ele>540.3</ele>
        <time>2020-08-19T16:52:39Z</time>
      </trkpt>
      <trkpt lat="47.96437" lon="6.95801">
        <ele>540.1</ele>
        <time>2020-08-19T16:52:43Z</time>
      </trkpt>
      <trkpt lat="47.96438" lon="6.95809">
        <ele>539.7</ele>
        <time>2020-08-19T16:52:48Z</time>
      </trkpt>
      <trkpt lat="47.96439" lon="6.95816">
        <ele>539.5</ele>
        <time>2020-08-19T16:52:53Z</time>
      </trkpt>
      <trkpt lat="47.96442" lon="6.95822">
        <ele>538.9</ele>
        <time>2020-08-19T16:53:02Z</time>
      </trkpt>
      <trkpt lat="47.96444" lon="6.95829">
        <ele>538.6</ele>
        <time>2020-08-19T16:53:09Z</time>
      </trkpt>
      <trkpt lat="47.96445" lon="6.95836">
        <ele>538.2</ele>
        <time>2020-08-19T16:53:15Z</time>
      </trkpt>
      <trkpt lat="47.96448" lon="6.95843">
        <ele>537.9</ele>
        <time>2020-08-19T16:53:20Z</time>
      </trkpt>
      <trkpt lat="47.9645" lon="6.95849">
        <ele>537.8</ele>
        <time>2020-08-19T16:53:24Z</time>
      </trkpt>
      <trkpt lat="47.96452" lon="6.95855">
        <ele>538.4</ele>
        <time>2020-08-19T16:53:35Z</time>
      </trkpt>
      <trkpt lat="47.96453" lon="6.95863">
        <ele>538.9</ele>
        <time>2020-08-19T16:53:41Z</time>
      </trkpt>
      <trkpt lat="47.96456" lon="6.95868">
        <ele>539</ele>
        <time>2020-08-19T16:53:46Z</time>
      </trkpt>
      <trkpt lat="47.96458" lon="6.95875">
        <ele>538.5</ele>
        <time>2020-08-19T16:54:22Z</time>
      </trkpt>
      <trkpt lat="47.96461" lon="6.9588">
        <ele>538.3</ele>
        <time>2020-08-19T16:54:33Z</time>
      </trkpt>
      <trkpt lat="47.96461" lon="6.95888">
        <ele>537.8</ele>
        <time>2020-08-19T16:54:42Z</time>
      </trkpt>
      <trkpt lat="47.96461" lon="6.95896">
        <ele>537.2</ele>
        <time>2020-08-19T16:54:47Z</time>
      </trkpt>
      <trkpt lat="47.96462" lon="6.95904">
        <ele>536.7</ele>
        <time>2020-08-19T16:54:52Z</time>
      </trkpt>
      <trkpt lat="47.96462" lon="6.95911">
        <ele>535.8</ele>
        <time>2020-08-19T16:55:00Z</time>
      </trkpt>
      <trkpt lat="47.96457" lon="6.95911">
        <ele>534.9</ele>
        <time>2020-08-19T16:55:11Z</time>
      </trkpt>
      <trkpt lat="47.96453" lon="6.95916">
        <ele>534.9</ele>
        <time>2020-08-19T16:55:17Z</time>
      </trkpt>
      <trkpt lat="47.96449" lon="6.95922">
        <ele>534.8</ele>
        <time>2020-08-19T16:55:22Z</time>
      </trkpt>
      <trkpt lat="47.96446" lon="6.95927">
        <ele>534.8</ele>
        <time>2020-08-19T16:55:26Z</time>
      </trkpt>
      <trkpt lat="47.96441" lon="6.9593">
        <ele>534.7</ele>
        <time>2020-08-19T16:55:31Z</time>
      </trkpt>
      <trkpt lat="47.96437" lon="6.95926">
        <ele>535.2</ele>
        <time>2020-08-19T16:55:43Z</time>
      </trkpt>
      <trkpt lat="47.96437" lon="6.95933">
        <ele>535.6</ele>
        <time>2020-08-19T16:56:03Z</time>
      </trkpt>
      <trkpt lat="47.96432" lon="6.95934">
        <ele>535.5</ele>
        <time>2020-08-19T16:56:11Z</time>
      </trkpt>
      <trkpt lat="47.96428" lon="6.9594">
        <ele>535.4</ele>
        <time>2020-08-19T16:56:30Z</time>
      </trkpt>
      <trkpt lat="47.96424" lon="6.9594">
        <ele>535.5</ele>
        <time>2020-08-19T16:56:35Z</time>
      </trkpt>
      <trkpt lat="47.96419" lon="6.95942">
        <ele>537.7</ele>
        <time>2020-08-19T16:57:16Z</time>
      </trkpt>
      <trkpt lat="47.96414" lon="6.95947">
        <ele>538.8</ele>
        <time>2020-08-19T16:57:22Z</time>
      </trkpt>
      <trkpt lat="47.9641" lon="6.95947">
        <ele>539.4</ele>
        <time>2020-08-19T16:57:26Z</time>
      </trkpt>
      <trkpt lat="47.96405" lon="6.95946">
        <ele>539.9</ele>
        <time>2020-08-19T16:57:30Z</time>
      </trkpt>
      <trkpt lat="47.96399" lon="6.95948">
        <ele>540.3</ele>
        <time>2020-08-19T16:57:35Z</time>
      </trkpt>
      <trkpt lat="47.96395" lon="6.95952">
        <ele>540.6</ele>
        <time>2020-08-19T16:57:40Z</time>
      </trkpt>
      <trkpt lat="47.96391" lon="6.95957">
        <ele>540.7</ele>
        <time>2020-08-19T16:57:45Z</time>
      </trkpt>
      <trkpt lat="47.96387" lon="6.95961">
        <ele>540.9</ele>
        <time>2020-08-19T16:57:50Z</time>
      </trkpt>
      <trkpt lat="47.96384" lon="6.95966">
        <ele>541.3</ele>
        <time>2020-08-19T16:57:56Z</time>
      </trkpt>
      <trkpt lat="47.9638" lon="6.9597">
        <ele>541.5</ele>
        <time>2020-08-19T16:58:02Z</time>
      </trkpt>
      <trkpt lat="47.96375" lon="6.95974">
        <ele>541.7</ele>
        <time>2020-08-19T16:58:07Z</time>
      </trkpt>
      <trkpt lat="47.96371" lon="6.95977">
        <ele>541.7</ele>
        <time>2020-08-19T16:58:11Z</time>
      </trkpt>
      <trkpt lat="47.96367" lon="6.95982">
        <ele>541.7</ele>
        <time>2020-08-19T16:58:15Z</time>
      </trkpt>
      <trkpt lat="47.96362" lon="6.95986">
        <ele>541.8</ele>
        <time>2020-08-19T16:58:19Z</time>
      </trkpt>
      <trkpt lat="47.96359" lon="6.95992">
        <ele>541.9</ele>
        <time>2020-08-19T16:58:23Z</time>
      </trkpt>
      <trkpt lat="47.96358" lon="6.95999">
        <ele>542</ele>
        <time>2020-08-19T16:58:27Z</time>
      </trkpt>
      <trkpt lat="47.96356" lon="6.96006">
        <ele>542.1</ele>
        <time>2020-08-19T16:58:31Z</time>
      </trkpt>
      <trkpt lat="47.96353" lon="6.96012">
        <ele>542.1</ele>
        <time>2020-08-19T16:58:35Z</time>
      </trkpt>
      <trkpt lat="47.9635" lon="6.96019">
        <ele>542.2</ele>
        <time>2020-08-19T16:58:39Z</time>
      </trkpt>
      <trkpt lat="47.96348" lon="6.96027">
        <ele>542.2</ele>
        <time>2020-08-19T16:58:43Z</time>
      </trkpt>
      <trkpt lat="47.96345" lon="6.96032">
        <ele>542.3</ele>
        <time>2020-08-19T16:58:47Z</time>
      </trkpt>
      <trkpt lat="47.96343" lon="6.96039">
        <ele>542.6</ele>
        <time>2020-08-19T16:58:51Z</time>
      </trkpt>
      <trkpt lat="47.96341" lon="6.96045">
        <ele>542.8</ele>
        <time>2020-08-19T16:58:55Z</time>
      </trkpt>
      <trkpt lat="47.96336" lon="6.96048">
        <ele>543.2</ele>
        <time>2020-08-19T16:59:00Z</time>
      </trkpt>
      <trkpt lat="47.96331" lon="6.9605">
        <ele>543.3</ele>
        <time>2020-08-19T16:59:05Z</time>
      </trkpt>
      <trkpt lat="47.96326" lon="6.96055">
        <ele>543.4</ele>
        <time>2020-08-19T16:59:10Z</time>
      </trkpt>
      <trkpt lat="47.96323" lon="6.9606">
        <ele>543.8</ele>
        <time>2020-08-19T16:59:15Z</time>
      </trkpt>
      <trkpt lat="47.96319" lon="6.96065">
        <ele>544.2</ele>
        <time>2020-08-19T16:59:20Z</time>
      </trkpt>
      <trkpt lat="47.96316" lon="6.9607">
        <ele>544.6</ele>
        <time>2020-08-19T16:59:24Z</time>
      </trkpt>
      <trkpt lat="47.96311" lon="6.96076">
        <ele>544.8</ele>
        <time>2020-08-19T16:59:28Z</time>
      </trkpt>
      <trkpt lat="47.96308" lon="6.96082">
        <ele>545.1</ele>
        <time>2020-08-19T16:59:32Z</time>
      </trkpt>
      <trkpt lat="47.96305" lon="6.96086">
        <ele>545.1</ele>
        <time>2020-08-19T16:59:35Z</time>
      </trkpt>
      <trkpt lat="47.96301" lon="6.96093">
        <ele>545.3</ele>
        <time>2020-08-19T16:59:39Z</time>
      </trkpt>
      <trkpt lat="47.96298" lon="6.96098">
        <ele>545.3</ele>
        <time>2020-08-19T16:59:44Z</time>
      </trkpt>
      <trkpt lat="47.96293" lon="6.96101">
        <ele>545.5</ele>
        <time>2020-08-19T16:59:50Z</time>
      </trkpt>
      <trkpt lat="47.96288" lon="6.96104">
        <ele>545.6</ele>
        <time>2020-08-19T16:59:53Z</time>
      </trkpt>
      <trkpt lat="47.96284" lon="6.96109">
        <ele>545.7</ele>
        <time>2020-08-19T16:59:57Z</time>
      </trkpt>
      <trkpt lat="47.96279" lon="6.96113">
        <ele>545.9</ele>
        <time>2020-08-19T17:00:00Z</time>
      </trkpt>
      <trkpt lat="47.96274" lon="6.96115">
        <ele>546.2</ele>
        <time>2020-08-19T17:00:05Z</time>
      </trkpt>
      <trkpt lat="47.96271" lon="6.9612">
        <ele>546.4</ele>
        <time>2020-08-19T17:00:10Z</time>
      </trkpt>
      <trkpt lat="47.96267" lon="6.96126">
        <ele>546.4</ele>
        <time>2020-08-19T17:00:14Z</time>
      </trkpt>
      <trkpt lat="47.96262" lon="6.96127">
        <ele>546.4</ele>
        <time>2020-08-19T17:00:18Z</time>
      </trkpt>
      <trkpt lat="47.96261" lon="6.96119">
        <ele>546.7</ele>
        <time>2020-08-19T17:00:29Z</time>
      </trkpt>
      <trkpt lat="47.96257" lon="6.96114">
        <ele>547.4</ele>
        <time>2020-08-19T17:01:08Z</time>
      </trkpt>
      <trkpt lat="47.96252" lon="6.96117">
        <ele>547</ele>
        <time>2020-08-19T17:01:12Z</time>
      </trkpt>
      <trkpt lat="47.96247" lon="6.96119">
        <ele>546.5</ele>
        <time>2020-08-19T17:01:16Z</time>
      </trkpt>
      <trkpt lat="47.96243" lon="6.96122">
        <ele>546</ele>
        <time>2020-08-19T17:01:20Z</time>
      </trkpt>
      <trkpt lat="47.96238" lon="6.96125">
        <ele>545.4</ele>
        <time>2020-08-19T17:01:24Z</time>
      </trkpt>
      <trkpt lat="47.96234" lon="6.96128">
        <ele>545</ele>
        <time>2020-08-19T17:01:28Z</time>
      </trkpt>
      <trkpt lat="47.96229" lon="6.9613">
        <ele>544.6</ele>
        <time>2020-08-19T17:01:32Z</time>
      </trkpt>
      <trkpt lat="47.96223" lon="6.96129">
        <ele>544.3</ele>
        <time>2020-08-19T17:01:36Z</time>
      </trkpt>
      <trkpt lat="47.96215" lon="6.96123">
        <ele>542.8</ele>
        <time>2020-08-19T17:02:32Z</time>
      </trkpt>
      <trkpt lat="47.96212" lon="6.96129">
        <ele>542.3</ele>
        <time>2020-08-19T17:02:45Z</time>
      </trkpt>
      <trkpt lat="47.96207" lon="6.9613">
        <ele>541.9</ele>
        <time>2020-08-19T17:02:50Z</time>
      </trkpt>
      <trkpt lat="47.96202" lon="6.96131">
        <ele>541.7</ele>
        <time>2020-08-19T17:02:55Z</time>
      </trkpt>
      <trkpt lat="47.96197" lon="6.96132">
        <ele>541.6</ele>
        <time>2020-08-19T17:02:59Z</time>
      </trkpt>
      <trkpt lat="47.96192" lon="6.96134">
        <ele>541.5</ele>
        <time>2020-08-19T17:03:05Z</time>
      </trkpt>
      <trkpt lat="47.96188" lon="6.96137">
        <ele>541.7</ele>
        <time>2020-08-19T17:03:10Z</time>
      </trkpt>
      <trkpt lat="47.96184" lon="6.96141">
        <ele>542.1</ele>
        <time>2020-08-19T17:03:16Z</time>
      </trkpt>
      <trkpt lat="47.96178" lon="6.96141">
        <ele>542.4</ele>
        <time>2020-08-19T17:03:20Z</time>
      </trkpt>
      <trkpt lat="47.96173" lon="6.9614">
        <ele>542.9</ele>
        <time>2020-08-19T17:03:25Z</time>
      </trkpt>
      <trkpt lat="47.9617" lon="6.96135">
        <ele>543.4</ele>
        <time>2020-08-19T17:03:31Z</time>
      </trkpt>
      <trkpt lat="47.96168" lon="6.96141">
        <ele>545.2</ele>
        <time>2020-08-19T17:04:22Z</time>
      </trkpt>
      <trkpt lat="47.96165" lon="6.96134">
        <ele>545.6</ele>
        <time>2020-08-19T17:04:32Z</time>
      </trkpt>
      <trkpt lat="47.9616" lon="6.96131">
        <ele>545.7</ele>
        <time>2020-08-19T17:04:36Z</time>
      </trkpt>
      <trkpt lat="47.96155" lon="6.9613">
        <ele>546</ele>
        <time>2020-08-19T17:04:40Z</time>
      </trkpt>
      <trkpt lat="47.96151" lon="6.9613">
        <ele>546.2</ele>
        <time>2020-08-19T17:04:44Z</time>
      </trkpt>
      <trkpt lat="47.96146" lon="6.96128">
        <ele>546.4</ele>
        <time>2020-08-19T17:04:48Z</time>
      </trkpt>
      <trkpt lat="47.9614" lon="6.96127">
        <ele>546.5</ele>
        <time>2020-08-19T17:04:52Z</time>
      </trkpt>
      <trkpt lat="47.96134" lon="6.96127">
        <ele>546.6</ele>
        <time>2020-08-19T17:04:56Z</time>
      </trkpt>
      <trkpt lat="47.9613" lon="6.96131">
        <ele>546.9</ele>
        <time>2020-08-19T17:05:00Z</time>
      </trkpt>
      <trkpt lat="47.96125" lon="6.96134">
        <ele>547.2</ele>
        <time>2020-08-19T17:05:04Z</time>
      </trkpt>
      <trkpt lat="47.9612" lon="6.96135">
        <ele>547.5</ele>
        <time>2020-08-19T17:05:08Z</time>
      </trkpt>
      <trkpt lat="47.96114" lon="6.96137">
        <ele>547.9</ele>
        <time>2020-08-19T17:05:12Z</time>
      </trkpt>
      <trkpt lat="47.96109" lon="6.96137">
        <ele>548.2</ele>
        <time>2020-08-19T17:05:16Z</time>
      </trkpt>
      <trkpt lat="47.96104" lon="6.96137">
        <ele>548.3</ele>
        <time>2020-08-19T17:05:19Z</time>
      </trkpt>
      <trkpt lat="47.96099" lon="6.96136">
        <ele>548.4</ele>
        <time>2020-08-19T17:05:22Z</time>
      </trkpt>
      <trkpt lat="47.96094" lon="6.96135">
        <ele>548.5</ele>
        <time>2020-08-19T17:05:26Z</time>
      </trkpt>
      <trkpt lat="47.96089" lon="6.96136">
        <ele>548.5</ele>
        <time>2020-08-19T17:05:30Z</time>
      </trkpt>
      <trkpt lat="47.96084" lon="6.96137">
        <ele>548.7</ele>
        <time>2020-08-19T17:05:34Z</time>
      </trkpt>
      <trkpt lat="47.96079" lon="6.96139">
        <ele>548.9</ele>
        <time>2020-08-19T17:05:38Z</time>
      </trkpt>
      <trkpt lat="47.96074" lon="6.9614">
        <ele>549</ele>
        <time>2020-08-19T17:05:42Z</time>
      </trkpt>
      <trkpt lat="47.9607" lon="6.96141">
        <ele>548.9</ele>
        <time>2020-08-19T17:05:45Z</time>
      </trkpt>
      <trkpt lat="47.96065" lon="6.96144">
        <ele>548.9</ele>
        <time>2020-08-19T17:05:49Z</time>
      </trkpt>
      <trkpt lat="47.96059" lon="6.96146">
        <ele>549</ele>
        <time>2020-08-19T17:05:53Z</time>
      </trkpt>
      <trkpt lat="47.96054" lon="6.96147">
        <ele>549.5</ele>
        <time>2020-08-19T17:05:58Z</time>
      </trkpt>
      <trkpt lat="47.96048" lon="6.96148">
        <ele>549.7</ele>
        <time>2020-08-19T17:06:03Z</time>
      </trkpt>
      <trkpt lat="47.96044" lon="6.96148">
        <ele>549.7</ele>
        <time>2020-08-19T17:06:06Z</time>
      </trkpt>
      <trkpt lat="47.96038" lon="6.96149">
        <ele>549.5</ele>
        <time>2020-08-19T17:06:10Z</time>
      </trkpt>
      <trkpt lat="47.96033" lon="6.96152">
        <ele>549.4</ele>
        <time>2020-08-19T17:06:15Z</time>
      </trkpt>
      <trkpt lat="47.96028" lon="6.96155">
        <ele>549.6</ele>
        <time>2020-08-19T17:06:20Z</time>
      </trkpt>
      <trkpt lat="47.96023" lon="6.96155">
        <ele>549.6</ele>
        <time>2020-08-19T17:06:24Z</time>
      </trkpt>
      <trkpt lat="47.96019" lon="6.96161">
        <ele>549.3</ele>
        <time>2020-08-19T17:06:28Z</time>
      </trkpt>
      <trkpt lat="47.96014" lon="6.96164">
        <ele>549.1</ele>
        <time>2020-08-19T17:06:32Z</time>
      </trkpt>
      <trkpt lat="47.96009" lon="6.96163">
        <ele>548.9</ele>
        <time>2020-08-19T17:06:36Z</time>
      </trkpt>
      <trkpt lat="47.96004" lon="6.96166">
        <ele>548.9</ele>
        <time>2020-08-19T17:06:41Z</time>
      </trkpt>
      <trkpt lat="47.96" lon="6.96169">
        <ele>548.6</ele>
        <time>2020-08-19T17:06:45Z</time>
      </trkpt>
      <trkpt lat="47.95994" lon="6.9617">
        <ele>547.9</ele>
        <time>2020-08-19T17:06:51Z</time>
      </trkpt>
      <trkpt lat="47.9599" lon="6.96165">
        <ele>547.4</ele>
        <time>2020-08-19T17:06:55Z</time>
      </trkpt>
      <trkpt lat="47.95985" lon="6.96164">
        <ele>547.2</ele>
        <time>2020-08-19T17:06:59Z</time>
      </trkpt>
      <trkpt lat="47.9598" lon="6.96164">
        <ele>547</ele>
        <time>2020-08-19T17:07:03Z</time>
      </trkpt>
      <trkpt lat="47.95975" lon="6.96166">
        <ele>547.6</ele>
        <time>2020-08-19T17:07:09Z</time>
      </trkpt>
      <trkpt lat="47.9597" lon="6.9617">
        <ele>548.3</ele>
        <time>2020-08-19T17:07:15Z</time>
      </trkpt>
      <trkpt lat="47.95966" lon="6.96174">
        <ele>549.2</ele>
        <time>2020-08-19T17:07:19Z</time>
      </trkpt>
      <trkpt lat="47.95961" lon="6.96175">
        <ele>549.7</ele>
        <time>2020-08-19T17:07:23Z</time>
      </trkpt>
      <trkpt lat="47.95956" lon="6.96176">
        <ele>549.9</ele>
        <time>2020-08-19T17:07:27Z</time>
      </trkpt>
      <trkpt lat="47.95951" lon="6.96176">
        <ele>549.9</ele>
        <time>2020-08-19T17:07:31Z</time>
      </trkpt>
      <trkpt lat="47.95947" lon="6.96175">
        <ele>549.9</ele>
        <time>2020-08-19T17:07:35Z</time>
      </trkpt>
      <trkpt lat="47.9594" lon="6.96171">
        <ele>550.5</ele>
        <time>2020-08-19T17:07:38Z</time>
      </trkpt>
      <trkpt lat="47.95935" lon="6.9617">
        <ele>551.1</ele>
        <time>2020-08-19T17:07:42Z</time>
      </trkpt>
      <trkpt lat="47.95929" lon="6.96168">
        <ele>551.5</ele>
        <time>2020-08-19T17:07:46Z</time>
      </trkpt>
      <trkpt lat="47.95924" lon="6.96168">
        <ele>552</ele>
        <time>2020-08-19T17:07:50Z</time>
      </trkpt>
      <trkpt lat="47.95919" lon="6.96168">
        <ele>552.4</ele>
        <time>2020-08-19T17:07:54Z</time>
      </trkpt>
      <trkpt lat="47.95913" lon="6.96167">
        <ele>552.6</ele>
        <time>2020-08-19T17:07:59Z</time>
      </trkpt>
      <trkpt lat="47.95908" lon="6.96167">
        <ele>552.5</ele>
        <time>2020-08-19T17:08:03Z</time>
      </trkpt>
      <trkpt lat="47.95903" lon="6.96168">
        <ele>552.2</ele>
        <time>2020-08-19T17:08:07Z</time>
      </trkpt>
      <trkpt lat="47.95898" lon="6.9617">
        <ele>551.8</ele>
        <time>2020-08-19T17:08:11Z</time>
      </trkpt>
      <trkpt lat="47.95892" lon="6.9617">
        <ele>551.3</ele>
        <time>2020-08-19T17:08:16Z</time>
      </trkpt>
      <trkpt lat="47.95888" lon="6.96169">
        <ele>551</ele>
        <time>2020-08-19T17:08:20Z</time>
      </trkpt>
      <trkpt lat="47.95883" lon="6.96169">
        <ele>550.5</ele>
        <time>2020-08-19T17:08:26Z</time>
      </trkpt>
      <trkpt lat="47.95879" lon="6.96166">
        <ele>550.2</ele>
        <time>2020-08-19T17:08:31Z</time>
      </trkpt>
      <trkpt lat="47.95874" lon="6.96163">
        <ele>550</ele>
        <time>2020-08-19T17:08:35Z</time>
      </trkpt>
      <trkpt lat="47.9587" lon="6.96158">
        <ele>549.8</ele>
        <time>2020-08-19T17:08:39Z</time>
      </trkpt>
      <trkpt lat="47.95864" lon="6.9616">
        <ele>549.2</ele>
        <time>2020-08-19T17:08:43Z</time>
      </trkpt>
      <trkpt lat="47.9586" lon="6.96159">
        <ele>548.3</ele>
        <time>2020-08-19T17:08:47Z</time>
      </trkpt>
      <trkpt lat="47.95855" lon="6.96157">
        <ele>547.6</ele>
        <time>2020-08-19T17:08:51Z</time>
      </trkpt>
      <trkpt lat="47.9585" lon="6.96157">
        <ele>547.1</ele>
        <time>2020-08-19T17:08:54Z</time>
      </trkpt>
      <trkpt lat="47.95845" lon="6.96156">
        <ele>546.7</ele>
        <time>2020-08-19T17:08:58Z</time>
      </trkpt>
      <trkpt lat="47.9584" lon="6.96155">
        <ele>546.3</ele>
        <time>2020-08-19T17:09:02Z</time>
      </trkpt>
      <trkpt lat="47.95835" lon="6.96153">
        <ele>546</ele>
        <time>2020-08-19T17:09:05Z</time>
      </trkpt>
      <trkpt lat="47.9583" lon="6.96154">
        <ele>545.5</ele>
        <time>2020-08-19T17:09:09Z</time>
      </trkpt>
      <trkpt lat="47.95825" lon="6.96158">
        <ele>544.5</ele>
        <time>2020-08-19T17:09:14Z</time>
      </trkpt>
      <trkpt lat="47.95821" lon="6.96163">
        <ele>543.7</ele>
        <time>2020-08-19T17:09:19Z</time>
      </trkpt>
      <trkpt lat="47.95817" lon="6.96166">
        <ele>542.9</ele>
        <time>2020-08-19T17:09:24Z</time>
      </trkpt>
      <trkpt lat="47.95811" lon="6.96167">
        <ele>542.4</ele>
        <time>2020-08-19T17:09:28Z</time>
      </trkpt>
      <trkpt lat="47.95806" lon="6.96171">
        <ele>541.9</ele>
        <time>2020-08-19T17:09:33Z</time>
      </trkpt>
      <trkpt lat="47.95802" lon="6.96173">
        <ele>541.2</ele>
        <time>2020-08-19T17:09:38Z</time>
      </trkpt>
      <trkpt lat="47.95798" lon="6.96176">
        <ele>540.6</ele>
        <time>2020-08-19T17:09:42Z</time>
      </trkpt>
      <trkpt lat="47.95794" lon="6.96179">
        <ele>539.9</ele>
        <time>2020-08-19T17:09:46Z</time>
      </trkpt>
      <trkpt lat="47.95788" lon="6.96176">
        <ele>539.4</ele>
        <time>2020-08-19T17:09:50Z</time>
      </trkpt>
      <trkpt lat="47.95784" lon="6.96176">
        <ele>538.9</ele>
        <time>2020-08-19T17:09:54Z</time>
      </trkpt>
      <trkpt lat="47.95779" lon="6.96181">
        <ele>538</ele>
        <time>2020-08-19T17:09:59Z</time>
      </trkpt>
      <trkpt lat="47.95774" lon="6.96182">
        <ele>537.6</ele>
        <time>2020-08-19T17:10:02Z</time>
      </trkpt>
      <trkpt lat="47.95769" lon="6.96183">
        <ele>537.3</ele>
        <time>2020-08-19T17:10:05Z</time>
      </trkpt>
      <trkpt lat="47.95764" lon="6.96183">
        <ele>537.2</ele>
        <time>2020-08-19T17:10:09Z</time>
      </trkpt>
      <trkpt lat="47.95758" lon="6.96179">
        <ele>537.5</ele>
        <time>2020-08-19T17:10:13Z</time>
      </trkpt>
      <trkpt lat="47.95752" lon="6.96179">
        <ele>538.2</ele>
        <time>2020-08-19T17:10:17Z</time>
      </trkpt>
      <trkpt lat="47.95747" lon="6.96181">
        <ele>538.5</ele>
        <time>2020-08-19T17:10:22Z</time>
      </trkpt>
      <trkpt lat="47.95742" lon="6.96186">
        <ele>538.7</ele>
        <time>2020-08-19T17:10:27Z</time>
      </trkpt>
      <trkpt lat="47.95737" lon="6.96188">
        <ele>538.6</ele>
        <time>2020-08-19T17:10:31Z</time>
      </trkpt>
      <trkpt lat="47.95733" lon="6.9619">
        <ele>538.7</ele>
        <time>2020-08-19T17:10:34Z</time>
      </trkpt>
      <trkpt lat="47.95728" lon="6.96192">
        <ele>538.8</ele>
        <time>2020-08-19T17:10:38Z</time>
      </trkpt>
      <trkpt lat="47.95723" lon="6.96194">
        <ele>538.9</ele>
        <time>2020-08-19T17:10:42Z</time>
      </trkpt>
      <trkpt lat="47.95718" lon="6.96194">
        <ele>539</ele>
        <time>2020-08-19T17:10:46Z</time>
      </trkpt>
      <trkpt lat="47.95712" lon="6.96195">
        <ele>539</ele>
        <time>2020-08-19T17:10:50Z</time>
      </trkpt>
      <trkpt lat="47.95707" lon="6.96196">
        <ele>539.1</ele>
        <time>2020-08-19T17:10:55Z</time>
      </trkpt>
      <trkpt lat="47.95703" lon="6.962">
        <ele>539.1</ele>
        <time>2020-08-19T17:10:59Z</time>
      </trkpt>
      <trkpt lat="47.95698" lon="6.96199">
        <ele>539.3</ele>
        <time>2020-08-19T17:11:03Z</time>
      </trkpt>
      <trkpt lat="47.95692" lon="6.96197">
        <ele>539.7</ele>
        <time>2020-08-19T17:11:07Z</time>
      </trkpt>
      <trkpt lat="47.95686" lon="6.96196">
        <ele>540</ele>
        <time>2020-08-19T17:11:10Z</time>
      </trkpt>
      <trkpt lat="47.9568" lon="6.96193">
        <ele>540.2</ele>
        <time>2020-08-19T17:11:14Z</time>
      </trkpt>
      <trkpt lat="47.95675" lon="6.9619">
        <ele>540.2</ele>
        <time>2020-08-19T17:11:17Z</time>
      </trkpt>
      <trkpt lat="47.9567" lon="6.96185">
        <ele>540.3</ele>
        <time>2020-08-19T17:11:20Z</time>
      </trkpt>
      <trkpt lat="47.95664" lon="6.96183">
        <ele>540.5</ele>
        <time>2020-08-19T17:11:24Z</time>
      </trkpt>
      <trkpt lat="47.9566" lon="6.96182">
        <ele>540.4</ele>
        <time>2020-08-19T17:11:28Z</time>
      </trkpt>
      <trkpt lat="47.95654" lon="6.9618">
        <ele>540.1</ele>
        <time>2020-08-19T17:11:32Z</time>
      </trkpt>
      <trkpt lat="47.9565" lon="6.96177">
        <ele>540</ele>
        <time>2020-08-19T17:11:36Z</time>
      </trkpt>
      <trkpt lat="47.95645" lon="6.96175">
        <ele>540.2</ele>
        <time>2020-08-19T17:11:41Z</time>
      </trkpt>
      <trkpt lat="47.95639" lon="6.96173">
        <ele>540.5</ele>
        <time>2020-08-19T17:11:46Z</time>
      </trkpt>
      <trkpt lat="47.95634" lon="6.96172">
        <ele>540.9</ele>
        <time>2020-08-19T17:11:50Z</time>
      </trkpt>
      <trkpt lat="47.95629" lon="6.96171">
        <ele>541.3</ele>
        <time>2020-08-19T17:11:54Z</time>
      </trkpt>
      <trkpt lat="47.95624" lon="6.96169">
        <ele>541.8</ele>
        <time>2020-08-19T17:11:57Z</time>
      </trkpt>
      <trkpt lat="47.95619" lon="6.96163">
        <ele>542.3</ele>
        <time>2020-08-19T17:12:00Z</time>
      </trkpt>
      <trkpt lat="47.95614" lon="6.96158">
        <ele>542.9</ele>
        <time>2020-08-19T17:12:03Z</time>
      </trkpt>
      <trkpt lat="47.9561" lon="6.96154">
        <ele>543.3</ele>
        <time>2020-08-19T17:12:06Z</time>
      </trkpt>
      <trkpt lat="47.95606" lon="6.96151">
        <ele>543.6</ele>
        <time>2020-08-19T17:12:09Z</time>
      </trkpt>
      <trkpt lat="47.956" lon="6.96147">
        <ele>544.3</ele>
        <time>2020-08-19T17:12:13Z</time>
      </trkpt>
      <trkpt lat="47.95596" lon="6.96145">
        <ele>546.3</ele>
        <time>2020-08-19T17:12:18Z</time>
      </trkpt>
      <trkpt lat="47.95591" lon="6.96141">
        <ele>547.6</ele>
        <time>2020-08-19T17:12:23Z</time>
      </trkpt>
      <trkpt lat="47.95585" lon="6.96141">
        <ele>548</ele>
        <time>2020-08-19T17:12:28Z</time>
      </trkpt>
      <trkpt lat="47.9558" lon="6.9614">
        <ele>548.2</ele>
        <time>2020-08-19T17:12:32Z</time>
      </trkpt>
      <trkpt lat="47.95575" lon="6.9614">
        <ele>548.5</ele>
        <time>2020-08-19T17:12:36Z</time>
      </trkpt>
      <trkpt lat="47.9557" lon="6.9614">
        <ele>548.9</ele>
        <time>2020-08-19T17:12:40Z</time>
      </trkpt>
      <trkpt lat="47.95565" lon="6.96141">
        <ele>549.6</ele>
        <time>2020-08-19T17:12:44Z</time>
      </trkpt>
      <trkpt lat="47.95559" lon="6.96143">
        <ele>550.2</ele>
        <time>2020-08-19T17:12:48Z</time>
      </trkpt>
      <trkpt lat="47.95555" lon="6.96143">
        <ele>550.6</ele>
        <time>2020-08-19T17:12:51Z</time>
      </trkpt>
      <trkpt lat="47.95549" lon="6.96143">
        <ele>551.1</ele>
        <time>2020-08-19T17:12:54Z</time>
      </trkpt>
      <trkpt lat="47.95543" lon="6.96144">
        <ele>551.9</ele>
        <time>2020-08-19T17:12:58Z</time>
      </trkpt>
      <trkpt lat="47.95538" lon="6.96145">
        <ele>553</ele>
        <time>2020-08-19T17:13:03Z</time>
      </trkpt>
      <trkpt lat="47.95533" lon="6.96147">
        <ele>553.9</ele>
        <time>2020-08-19T17:13:07Z</time>
      </trkpt>
      <trkpt lat="47.95529" lon="6.96148">
        <ele>554.8</ele>
        <time>2020-08-19T17:13:11Z</time>
      </trkpt>
      <trkpt lat="47.95524" lon="6.96149">
        <ele>555.4</ele>
        <time>2020-08-19T17:13:15Z</time>
      </trkpt>
      <trkpt lat="47.95519" lon="6.96148">
        <ele>556.2</ele>
        <time>2020-08-19T17:13:19Z</time>
      </trkpt>
      <trkpt lat="47.95515" lon="6.96145">
        <ele>556.3</ele>
        <time>2020-08-19T17:13:23Z</time>
      </trkpt>
      <trkpt lat="47.9551" lon="6.96143">
        <ele>556.2</ele>
        <time>2020-08-19T17:13:27Z</time>
      </trkpt>
      <trkpt lat="47.95505" lon="6.96144">
        <ele>555.6</ele>
        <time>2020-08-19T17:13:31Z</time>
      </trkpt>
      <trkpt lat="47.955" lon="6.96142">
        <ele>555.2</ele>
        <time>2020-08-19T17:13:35Z</time>
      </trkpt>
      <trkpt lat="47.95495" lon="6.9614">
        <ele>555</ele>
        <time>2020-08-19T17:13:39Z</time>
      </trkpt>
      <trkpt lat="47.9549" lon="6.96137">
        <ele>555.3</ele>
        <time>2020-08-19T17:13:43Z</time>
      </trkpt>
      <trkpt lat="47.95486" lon="6.96136">
        <ele>555.8</ele>
        <time>2020-08-19T17:13:47Z</time>
      </trkpt>
      <trkpt lat="47.95481" lon="6.96134">
        <ele>556.6</ele>
        <time>2020-08-19T17:13:52Z</time>
      </trkpt>
      <trkpt lat="47.95476" lon="6.9613">
        <ele>557.3</ele>
        <time>2020-08-19T17:13:57Z</time>
      </trkpt>
      <trkpt lat="47.95475" lon="6.96124">
        <ele>557.7</ele>
        <time>2020-08-19T17:14:05Z</time>
      </trkpt>
      <trkpt lat="47.95474" lon="6.96132">
        <ele>555.8</ele>
        <time>2020-08-19T17:15:30Z</time>
      </trkpt>
      <trkpt lat="47.95479" lon="6.9613">
        <ele>557.7</ele>
        <time>2020-08-19T17:16:20Z</time>
      </trkpt>
      <trkpt lat="47.95473" lon="6.9613">
        <ele>558.1</ele>
        <time>2020-08-19T17:16:48Z</time>
      </trkpt>
      <trkpt lat="47.95468" lon="6.96129">
        <ele>558.4</ele>
        <time>2020-08-19T17:16:52Z</time>
      </trkpt>
      <trkpt lat="47.95463" lon="6.96128">
        <ele>558</ele>
        <time>2020-08-19T17:16:58Z</time>
      </trkpt>
      <trkpt lat="47.95458" lon="6.96126">
        <ele>557.7</ele>
        <time>2020-08-19T17:17:04Z</time>
      </trkpt>
      <trkpt lat="47.9546" lon="6.9612">
        <ele>556.2</ele>
        <time>2020-08-19T17:17:13Z</time>
      </trkpt>
      <trkpt lat="47.95457" lon="6.96114">
        <ele>553.6</ele>
        <time>2020-08-19T17:17:24Z</time>
      </trkpt>
      <trkpt lat="47.95455" lon="6.96108">
        <ele>550.4</ele>
        <time>2020-08-19T17:18:10Z</time>
      </trkpt>
      <trkpt lat="47.95451" lon="6.9611">
        <ele>550.2</ele>
        <time>2020-08-19T17:18:46Z</time>
      </trkpt>
      <trkpt lat="47.95446" lon="6.96113">
        <ele>550.3</ele>
        <time>2020-08-19T17:18:51Z</time>
      </trkpt>
      <trkpt lat="47.9544" lon="6.96113">
        <ele>550.5</ele>
        <time>2020-08-19T17:18:58Z</time>
      </trkpt>
      <trkpt lat="47.95435" lon="6.96114">
        <ele>550.7</ele>
        <time>2020-08-19T17:19:07Z</time>
      </trkpt>
      <trkpt lat="47.95431" lon="6.96109">
        <ele>550.9</ele>
        <time>2020-08-19T17:19:15Z</time>
      </trkpt>
      <trkpt lat="47.95427" lon="6.96105">
        <ele>551.1</ele>
        <time>2020-08-19T17:19:20Z</time>
      </trkpt>
      <trkpt lat="47.95424" lon="6.96098">
        <ele>551.3</ele>
        <time>2020-08-19T17:19:24Z</time>
      </trkpt>
      <trkpt lat="47.95422" lon="6.96092">
        <ele>551.1</ele>
        <time>2020-08-19T17:19:43Z</time>
      </trkpt>
      <trkpt lat="47.95419" lon="6.96088">
        <ele>550.2</ele>
        <time>2020-08-19T17:19:50Z</time>
      </trkpt>
      <trkpt lat="47.95414" lon="6.96089">
        <ele>549.5</ele>
        <time>2020-08-19T17:19:58Z</time>
      </trkpt>
      <trkpt lat="47.9541" lon="6.96086">
        <ele>549.7</ele>
        <time>2020-08-19T17:20:04Z</time>
      </trkpt>
      <trkpt lat="47.95405" lon="6.96086">
        <ele>550.7</ele>
        <time>2020-08-19T17:20:15Z</time>
      </trkpt>
      <trkpt lat="47.95403" lon="6.96093">
        <ele>551.7</ele>
        <time>2020-08-19T17:20:22Z</time>
      </trkpt>
      <trkpt lat="47.954" lon="6.96098">
        <ele>553.1</ele>
        <time>2020-08-19T17:20:31Z</time>
      </trkpt>
      <trkpt lat="47.95395" lon="6.96099">
        <ele>554</ele>
        <time>2020-08-19T17:20:38Z</time>
      </trkpt>
      <trkpt lat="47.95391" lon="6.961">
        <ele>555.5</ele>
        <time>2020-08-19T17:20:57Z</time>
      </trkpt>
      <trkpt lat="47.95386" lon="6.96103">
        <ele>555.7</ele>
        <time>2020-08-19T17:21:03Z</time>
      </trkpt>
      <trkpt lat="47.95381" lon="6.96104">
        <ele>555.8</ele>
        <time>2020-08-19T17:21:09Z</time>
      </trkpt>
      <trkpt lat="47.95376" lon="6.96104">
        <ele>555.8</ele>
        <time>2020-08-19T17:21:14Z</time>
      </trkpt>
      <trkpt lat="47.95371" lon="6.96102">
        <ele>555.7</ele>
        <time>2020-08-19T17:21:19Z</time>
      </trkpt>
      <trkpt lat="47.95366" lon="6.96101">
        <ele>555.6</ele>
        <time>2020-08-19T17:21:24Z</time>
      </trkpt>
      <trkpt lat="47.95361" lon="6.96102">
        <ele>555.6</ele>
        <time>2020-08-19T17:21:29Z</time>
      </trkpt>
      <trkpt lat="47.95356" lon="6.96101">
        <ele>555.6</ele>
        <time>2020-08-19T17:21:34Z</time>
      </trkpt>
      <trkpt lat="47.95351" lon="6.96102">
        <ele>555.4</ele>
        <time>2020-08-19T17:21:39Z</time>
      </trkpt>
      <trkpt lat="47.95347" lon="6.96104">
        <ele>555.2</ele>
        <time>2020-08-19T17:21:44Z</time>
      </trkpt>
      <trkpt lat="47.95342" lon="6.96102">
        <ele>555</ele>
        <time>2020-08-19T17:21:49Z</time>
      </trkpt>
      <trkpt lat="47.95336" lon="6.961">
        <ele>554.7</ele>
        <time>2020-08-19T17:21:54Z</time>
      </trkpt>
      <trkpt lat="47.95332" lon="6.96097">
        <ele>554.5</ele>
        <time>2020-08-19T17:22:00Z</time>
      </trkpt>
      <trkpt lat="47.95327" lon="6.96095">
        <ele>554.4</ele>
        <time>2020-08-19T17:22:07Z</time>
      </trkpt>
      <trkpt lat="47.95322" lon="6.96095">
        <ele>554.3</ele>
        <time>2020-08-19T17:22:12Z</time>
      </trkpt>
      <trkpt lat="47.95317" lon="6.96096">
        <ele>554.2</ele>
        <time>2020-08-19T17:22:17Z</time>
      </trkpt>
      <trkpt lat="47.95312" lon="6.96096">
        <ele>554.1</ele>
        <time>2020-08-19T17:22:22Z</time>
      </trkpt>
      <trkpt lat="47.95307" lon="6.96095">
        <ele>553.9</ele>
        <time>2020-08-19T17:22:27Z</time>
      </trkpt>
      <trkpt lat="47.95302" lon="6.96095">
        <ele>553.6</ele>
        <time>2020-08-19T17:22:31Z</time>
      </trkpt>
      <trkpt lat="47.95297" lon="6.96094">
        <ele>553.3</ele>
        <time>2020-08-19T17:22:35Z</time>
      </trkpt>
      <trkpt lat="47.95292" lon="6.96094">
        <ele>552.9</ele>
        <time>2020-08-19T17:22:40Z</time>
      </trkpt>
      <trkpt lat="47.95287" lon="6.96094">
        <ele>552.3</ele>
        <time>2020-08-19T17:22:45Z</time>
      </trkpt>
      <trkpt lat="47.95282" lon="6.96097">
        <ele>551.4</ele>
        <time>2020-08-19T17:22:50Z</time>
      </trkpt>
      <trkpt lat="47.95277" lon="6.96097">
        <ele>549.5</ele>
        <time>2020-08-19T17:23:05Z</time>
      </trkpt>
      <trkpt lat="47.95273" lon="6.96097">
        <ele>548.9</ele>
        <time>2020-08-19T17:23:10Z</time>
      </trkpt>
      <trkpt lat="47.95268" lon="6.96098">
        <ele>548.4</ele>
        <time>2020-08-19T17:23:15Z</time>
      </trkpt>
      <trkpt lat="47.95263" lon="6.96097">
        <ele>547.9</ele>
        <time>2020-08-19T17:23:20Z</time>
      </trkpt>
      <trkpt lat="47.95258" lon="6.96096">
        <ele>547.4</ele>
        <time>2020-08-19T17:23:25Z</time>
      </trkpt>
      <trkpt lat="47.95253" lon="6.96095">
        <ele>547</ele>
        <time>2020-08-19T17:23:29Z</time>
      </trkpt>
      <trkpt lat="47.95248" lon="6.96097">
        <ele>546.3</ele>
        <time>2020-08-19T17:23:34Z</time>
      </trkpt>
      <trkpt lat="47.95244" lon="6.96101">
        <ele>545.5</ele>
        <time>2020-08-19T17:23:39Z</time>
      </trkpt>
      <trkpt lat="47.95239" lon="6.96103">
        <ele>544.7</ele>
        <time>2020-08-19T17:23:44Z</time>
      </trkpt>
      <trkpt lat="47.95234" lon="6.96103">
        <ele>543.9</ele>
        <time>2020-08-19T17:23:49Z</time>
      </trkpt>
      <trkpt lat="47.95229" lon="6.96105">
        <ele>543.3</ele>
        <time>2020-08-19T17:23:54Z</time>
      </trkpt>
      <trkpt lat="47.95224" lon="6.96106">
        <ele>542.7</ele>
        <time>2020-08-19T17:23:59Z</time>
      </trkpt>
      <trkpt lat="47.95219" lon="6.96105">
        <ele>542.3</ele>
        <time>2020-08-19T17:24:03Z</time>
      </trkpt>
      <trkpt lat="47.95214" lon="6.96104">
        <ele>542</ele>
        <time>2020-08-19T17:24:07Z</time>
      </trkpt>
      <trkpt lat="47.9521" lon="6.96104">
        <ele>541.6</ele>
        <time>2020-08-19T17:24:11Z</time>
      </trkpt>
      <trkpt lat="47.95205" lon="6.96102">
        <ele>541.3</ele>
        <time>2020-08-19T17:24:15Z</time>
      </trkpt>
      <trkpt lat="47.95202" lon="6.96096">
        <ele>541.7</ele>
        <time>2020-08-19T17:24:21Z</time>
      </trkpt>
      <trkpt lat="47.95198" lon="6.96092">
        <ele>542.6</ele>
        <time>2020-08-19T17:24:36Z</time>
      </trkpt>
      <trkpt lat="47.95193" lon="6.96093">
        <ele>542.4</ele>
        <time>2020-08-19T17:24:40Z</time>
      </trkpt>
      <trkpt lat="47.95189" lon="6.96093">
        <ele>542.2</ele>
        <time>2020-08-19T17:24:44Z</time>
      </trkpt>
      <trkpt lat="47.95183" lon="6.96093">
        <ele>542</ele>
        <time>2020-08-19T17:24:49Z</time>
      </trkpt>
      <trkpt lat="47.95178" lon="6.96093">
        <ele>541.7</ele>
        <time>2020-08-19T17:24:53Z</time>
      </trkpt>
      <trkpt lat="47.95172" lon="6.96093">
        <ele>541.5</ele>
        <time>2020-08-19T17:24:58Z</time>
      </trkpt>
      <trkpt lat="47.95167" lon="6.96094">
        <ele>541.2</ele>
        <time>2020-08-19T17:25:03Z</time>
      </trkpt>
      <trkpt lat="47.95162" lon="6.96094">
        <ele>541.2</ele>
        <time>2020-08-19T17:25:07Z</time>
      </trkpt>
      <trkpt lat="47.95157" lon="6.96092">
        <ele>541.1</ele>
        <time>2020-08-19T17:25:11Z</time>
      </trkpt>
      <trkpt lat="47.95152" lon="6.96091">
        <ele>541</ele>
        <time>2020-08-19T17:25:15Z</time>
      </trkpt>
      <trkpt lat="47.95147" lon="6.96091">
        <ele>540.9</ele>
        <time>2020-08-19T17:25:19Z</time>
      </trkpt>
      <trkpt lat="47.95142" lon="6.96089">
        <ele>540.9</ele>
        <time>2020-08-19T17:25:24Z</time>
      </trkpt>
      <trkpt lat="47.95137" lon="6.96088">
        <ele>540.8</ele>
        <time>2020-08-19T17:25:29Z</time>
      </trkpt>
      <trkpt lat="47.95133" lon="6.96087">
        <ele>540.6</ele>
        <time>2020-08-19T17:25:33Z</time>
      </trkpt>
      <trkpt lat="47.95127" lon="6.96086">
        <ele>540.3</ele>
        <time>2020-08-19T17:25:38Z</time>
      </trkpt>
      <trkpt lat="47.95122" lon="6.96088">
        <ele>539.8</ele>
        <time>2020-08-19T17:25:43Z</time>
      </trkpt>
      <trkpt lat="47.95117" lon="6.96089">
        <ele>539.4</ele>
        <time>2020-08-19T17:25:48Z</time>
      </trkpt>
      <trkpt lat="47.95111" lon="6.96088">
        <ele>539.2</ele>
        <time>2020-08-19T17:25:53Z</time>
      </trkpt>
      <trkpt lat="47.95107" lon="6.96086">
        <ele>539.1</ele>
        <time>2020-08-19T17:25:57Z</time>
      </trkpt>
      <trkpt lat="47.95102" lon="6.96087">
        <ele>539</ele>
        <time>2020-08-19T17:26:01Z</time>
      </trkpt>
      <trkpt lat="47.95097" lon="6.96088">
        <ele>539</ele>
        <time>2020-08-19T17:26:05Z</time>
      </trkpt>
      <trkpt lat="47.95092" lon="6.96087">
        <ele>539</ele>
        <time>2020-08-19T17:26:09Z</time>
      </trkpt>
      <trkpt lat="47.95089" lon="6.96081">
        <ele>539</ele>
        <time>2020-08-19T17:26:13Z</time>
      </trkpt>
      <trkpt lat="47.95093" lon="6.96078">
        <ele>540.1</ele>
        <time>2020-08-19T17:26:38Z</time>
      </trkpt>
      <trkpt lat="47.95088" lon="6.9608">
        <ele>541.4</ele>
        <time>2020-08-19T17:26:46Z</time>
      </trkpt>
      <trkpt lat="47.95083" lon="6.9608">
        <ele>541.9</ele>
        <time>2020-08-19T17:26:50Z</time>
      </trkpt>
      <trkpt lat="47.95078" lon="6.96081">
        <ele>542.3</ele>
        <time>2020-08-19T17:26:54Z</time>
      </trkpt>
      <trkpt lat="47.95073" lon="6.96082">
        <ele>542.8</ele>
        <time>2020-08-19T17:26:59Z</time>
      </trkpt>
      <trkpt lat="47.95068" lon="6.96082">
        <ele>543.2</ele>
        <time>2020-08-19T17:27:03Z</time>
      </trkpt>
      <trkpt lat="47.95063" lon="6.96081">
        <ele>543.6</ele>
        <time>2020-08-19T17:27:07Z</time>
      </trkpt>
      <trkpt lat="47.95058" lon="6.96081">
        <ele>543.9</ele>
        <time>2020-08-19T17:27:11Z</time>
      </trkpt>
      <trkpt lat="47.95054" lon="6.96082">
        <ele>544.1</ele>
        <time>2020-08-19T17:27:16Z</time>
      </trkpt>
      <trkpt lat="47.95049" lon="6.96084">
        <ele>544.3</ele>
        <time>2020-08-19T17:27:21Z</time>
      </trkpt>
      <trkpt lat="47.95044" lon="6.96086">
        <ele>544.3</ele>
        <time>2020-08-19T17:27:25Z</time>
      </trkpt>
      <trkpt lat="47.95039" lon="6.96086">
        <ele>544.2</ele>
        <time>2020-08-19T17:27:30Z</time>
      </trkpt>
      <trkpt lat="47.95034" lon="6.96086">
        <ele>544.1</ele>
        <time>2020-08-19T17:27:35Z</time>
      </trkpt>
      <trkpt lat="47.95029" lon="6.96084">
        <ele>544.1</ele>
        <time>2020-08-19T17:27:41Z</time>
      </trkpt>
      <trkpt lat="47.95026" lon="6.96089">
        <ele>544</ele>
        <time>2020-08-19T17:27:52Z</time>
      </trkpt>
      <trkpt lat="47.9503" lon="6.96087">
        <ele>542.8</ele>
        <time>2020-08-19T17:28:39Z</time>
      </trkpt>
    </trkseg>
  </trk>
</gpx>